
Distance (Route):
Temperature : -61.3°C
Humidity : 8.8%
Pressure : 0hPa| Receiver | Frames | First received | Last received |
|---|---|---|---|
| DM0DOS-11 | 300 | 2026-09-06 00:10:16 | 2026-09-06 01:06:02 |
| BIOWL1-15 | 188 | 2026-09-06 00:17:03 | 2026-09-06 01:04:01 |
| DJ2DS-15 | 70 | 2026-09-06 00:21:10 | 2026-09-06 01:03:47 |
| DB0UT-7 | 40 | 2026-09-06 00:26:31 | 2026-09-06 01:01:26 |
| BIOWL9-15 | 16 | 2026-09-06 00:20:39 | 2026-09-06 00:56:53 |
| AU51GT2 | 12 | 2026-09-06 00:45:19 | 2026-09-06 00:57:13 |
| BIOWL7-15 | 1 | 2026-09-06 00:27:18 | 2026-09-06 00:27:18 |
| Receiver | Date | Latitude | Longitude | Direction | Speed | Altitude | Climb | Temperature | Humidity | Pressure | Voltage | Killtimer | Uptime | BKT | XDATA |
|---|---|---|---|---|---|---|---|---|---|---|---|---|---|---|---|
| DM0DOS-11 | 2026-09-06 01:06:02 | 52.93076 | 0.03662 | 93° | 88km/h | 14375m | -18.9m/s | -61.3°C | 8.8% | 0hPa | 2.5V | 08:20:14 | 02:15:44 | 00:00:00 | |
| DM0DOS-11 | 2026-09-06 01:05:45 | 52.93095 | 0.03138 | 92° | 75km/h | 14679m | -19.8m/s | -60.4°C | 7.3% | 0hPa | 2.4V | 08:20:30 | 02:15:28 | 00:00:00 | |
| DM0DOS-11 | 2026-09-06 01:05:35 | 52.93102 | 0.02814 | 95° | 73km/h | 14877m | -20.3m/s | -59.6°C | 6.7% | 0hPa | 2.5V | 08:20:40 | 02:15:18 | 00:00:00 | |
| DM0DOS-11 | 2026-09-06 01:05:03 | 52.93191 | 0.01798 | 99° | 77km/h | 15552m | -21.6m/s | -59°C | 5.5% | 0hPa | 2.6V | 08:21:13 | 02:14:45 | 00:00:00 | |
| DM0DOS-11 | 2026-09-06 01:04:50 | 52.93223 | 0.01479 | 99° | 77km/h | 15763m | -20.9m/s | -60.4°C | 6.1% | 0hPa | 2.5V | 08:21:23 | 02:14:35 | 00:00:00 | |
| DM0DOS-11 | 2026-09-06 01:04:43 | 52.93260 | 0.01206 | 102° | 60km/h | 15976m | -21.4m/s | -60.6°C | 6.2% | 0hPa | 2.4V | 08:21:33 | 02:14:25 | 00:00:00 | |
| DM0DOS-11 | 2026-09-06 01:04:30 | 52.93285 | 0.00953 | 99° | 64km/h | 16188m | -22.2m/s | -60°C | 5.8% | 0hPa | 2.5V | 08:21:43 | 02:14:15 | 00:00:00 | |
| DM0DOS-11 | 2026-09-06 01:04:23 | 52.93322 | 0.00694 | 106° | 62km/h | 16394m | -22.8m/s | -58.8°C | 5.1% | 0hPa | 2.6V | 08:21:53 | 02:14:05 | 00:00:00 | |
| DM0DOS-11 | 2026-09-06 01:04:05 | 52.93379 | 0.00375 | 104° | 51km/h | 16716m | -20.6m/s | -58.8°C | 5.1% | 0hPa | 2.5V | 08:22:08 | 02:13:50 | 00:00:00 | |
| BIOWL1-15 | 2026-09-06 01:04:01 | 52.93385 | 0.00335 | 101° | 46km/h | 16758m | -22.4m/s | -59°C | 1.5% | 0hPa | 2.5V | 08:22:31 | 02:13:48 | 00:00:00 | |
| BIOWL1-15 | 2026-09-06 01:03:51 | 52.93398 | 0.00150 | 94° | 37km/h | 16976m | -21.7m/s | -57.9°C | 1.4% | 0hPa | 2.5V | 08:22:31 | 02:13:38 | 00:00:00 | |
| DJ2DS-15 | 2026-09-06 01:03:47 | 52.93399 | 0.00084 | 91° | 44km/h | 17064m | -20.9m/s | -58.2°C | 5.1% | 0hPa | 2.6V | 00:00:00 | 02:13:34 | 00:00:00 | |
| DM0DOS-11 | 2026-09-06 01:03:45 | 52.93398 | 0.00030 | 84° | 47km/h | 17126m | -22.4m/s | -57.9°C | 5% | 0hPa | 2.5V | 08:22:27 | 02:13:31 | 00:00:00 | |
| BIOWL1-15 | 2026-09-06 01:03:40 | 52.93395 | -0.00154 | 90° | 44km/h | 17331m | -22.8m/s | -56.7°C | 1.1% | 0hPa | 2.5V | 08:24:13 | 02:13:22 | 00:00:00 | |
| DM0DOS-11 | 2026-09-06 01:03:35 | 52.93394 | -0.00173 | 88° | 46km/h | 17353m | -22.7m/s | -56.5°C | 4.4% | 0hPa | 2.5V | 08:22:37 | 02:13:21 | 00:00:00 | |
| DM0DOS-11 | 2026-09-06 01:03:25 | 52.93404 | -0.00354 | 97° | 47km/h | 17570m | -23.6m/s | -56.8°C | 4.5% | 0hPa | 2.5V | 08:22:47 | 02:13:11 | 00:00:00 | |
| BIOWL1-15 | 2026-09-06 01:03:24 | 52.93404 | -0.00354 | 98° | 47km/h | 17570m | -23.6m/s | -56.8°C | 1.2% | 0hPa | 2.5V | 08:24:13 | 02:13:11 | 00:00:00 | |
| BIOWL1-15 | 2026-09-06 01:03:14 | 52.93417 | -0.00549 | 88° | 49km/h | 17791m | -23.6m/s | -57.1°C | 1.2% | 0hPa | 2.6V | 08:24:13 | 02:13:01 | 00:00:00 | |
| DJ2DS-15 | 2026-09-06 01:03:10 | 52.93416 | -0.00627 | 88° | 47km/h | 17887m | -23.5m/s | -56.6°C | 4.5% | 0hPa | 2.5V | 00:00:00 | 02:12:57 | 00:00:00 | |
| DM0DOS-11 | 2026-09-06 01:02:50 | 52.93441 | -0.01118 | 93° | 46km/h | 18432m | -19.3m/s | -56°C | 4.2% | 0hPa | 2.5V | 08:23:26 | 02:12:32 | 00:00:00 | |
| DJ2DS-15 | 2026-09-06 01:02:46 | 52.93441 | -0.01118 | 93° | 44km/h | 18433m | -19.3m/s | -56.0°C | 1.3% | -1.0hPa | 2.6V | 00:00:00 | 00:00:00 | 00:00:00 | |
| DM0DOS-11 | 2026-09-06 01:02:39 | 52.93456 | -0.01309 | 107° | 46km/h | 18653m | -22m/s | -56.5°C | 4.5% | 0hPa | 2.6V | 08:23:36 | 02:12:22 | 00:00:00 | |
| DJ2DS-15 | 2026-09-06 01:02:30 | 52.93473 | -0.01399 | 104° | 51km/h | 18766m | -24.1m/s | -56.8°C | 4.7% | 0hPa | 2.5V | 00:00:00 | 02:12:17 | 00:00:00 | |
| DM0DOS-11 | 2026-09-06 01:02:29 | 52.93483 | -0.01495 | 99° | 47km/h | 18891m | -26.4m/s | -56.5°C | 4.5% | 0hPa | 2.5V | 08:23:46 | 02:12:12 | 00:00:00 | |
| DM0DOS-11 | 2026-09-06 01:02:19 | 52.93493 | -0.01691 | 82° | 47km/h | 19087m | -17.3m/s | -55.5°C | 4.3% | 0hPa | 2.5V | 08:23:56 | 02:12:02 | 00:00:00 | |
| DM0DOS-11 | 2026-09-06 01:02:09 | 52.93465 | -0.01910 | 85° | 49km/h | 19295m | -24.7m/s | -55.6°C | 4.3% | 0hPa | 2.5V | 08:24:06 | 02:11:52 | 00:00:00 | |
| BIOWL1-15 | 2026-09-06 01:02:01 | 52.93472 | -0.02020 | 114° | 38km/h | 19436m | -23.3m/s | -55.3°C | 0.9% | 0hPa | 2.5V | 08:24:13 | 02:11:46 | 00:00:00 | |
| DM0DOS-11 | 2026-09-06 01:01:59 | 52.93487 | -0.02070 | 123° | 27km/h | 19530m | -24m/s | -54.9°C | 4.1% | 0hPa | 2.6V | 08:24:16 | 02:11:42 | 00:00:00 | |
| BIOWL1-15 | 2026-09-06 01:01:51 | 52.93499 | -0.02103 | 117° | 20km/h | 19631m | -26.2m/s | -54.5°C | 0.8% | 0hPa | 2.5V | 08:25:04 | 02:11:38 | 00:00:00 | |
| DM0DOS-11 | 2026-09-06 01:01:49 | 52.93502 | -0.02157 | 84° | 27km/h | 19782m | -23.2m/s | -55.2°C | 4.2% | 0hPa | 2.5V | 08:24:26 | 02:11:32 | 00:00:00 | |
| DJ2DS-15 | 2026-09-06 01:01:47 | 52.93503 | -0.02136 | 87° | 29km/h | 19735m | -25.9m/s | -54.8°C | 4.1% | 0hPa | 2.5V | 00:00:00 | 02:11:34 | 00:00:00 | |
| DM0DOS-11 | 2026-09-06 01:01:39 | 52.93496 | -0.02294 | 82° | 31km/h | 20033m | -26.2m/s | -55°C | 4.3% | 0hPa | 2.5V | 08:24:36 | 02:11:22 | 00:00:00 | |
| BIOWL1-15 | 2026-09-06 01:01:39 | 52.93499 | -0.02239 | 84° | 38km/h | 19929m | -27.4m/s | -55.4°C | 0.9% | 0hPa | 2.6V | 08:25:04 | 02:11:26 | 00:00:00 | |
| BIOWL1-15 | 2026-09-06 01:01:28 | 52.93491 | -0.02393 | 93° | 24km/h | 20265m | -25.6m/s | -54.2°C | 0.9% | 0hPa | 2.5V | 08:25:04 | 02:11:13 | 00:00:00 | |
| DJ2DS-15 | 2026-09-06 01:01:27 | 52.93490 | -0.02383 | 94° | 27km/h | 20239m | -26.8m/s | -54.3°C | 4.0% | 0hPa | 2.5V | 08:24:00 | 02:11:14 | 00:00:00 | |
| DB0UT-7 | 2026-09-06 01:01:26 | 52.93491 | -0.02393 | 94° | 22km/h | 20266m | -25.5m/s | -54.2°C | 4.0% | 0hPa | 2.5V | 00:00:00 | 00:00:00 | 00:00:00 | |
| DM0DOS-11 | 2026-09-06 01:01:19 | 52.93512 | -0.02526 | 117° | 27km/h | 20551m | -27.6m/s | -54.1°C | 3.8% | 0hPa | 2.5V | 08:24:56 | 02:11:02 | 00:00:00 | |
| BIOWL1-15 | 2026-09-06 01:01:15 | 52.93529 | -0.02579 | 127° | 26km/h | 20684m | -26.4m/s | -53.9°C | 0.7% | 0hPa | 2.6V | 08:25:04 | 02:10:57 | 00:00:00 | |
| BIOWL1-15 | 2026-09-06 01:01:03 | 52.93554 | -0.02618 | 146° | 15km/h | 20872m | -26.7m/s | -54.3°C | 0.7% | 0hPa | 2.6V | 08:25:55 | 02:10:50 | 00:00:00 | |
| BIOWL1-15 | 2026-09-06 01:00:58 | 52.93560 | -0.02656 | 41° | 16km/h | 21224m | -23.9m/s | -55.7°C | 1.2% | 0hPa | 2.6V | 08:25:55 | 02:10:37 | 00:00:00 | |
| DM0DOS-11 | 2026-09-06 01:00:49 | 52.93542 | -0.02690 | 61° | 26km/h | 21337m | -23.9m/s | -55.9°C | 4.7% | 0hPa | 2.5V | 08:25:26 | 02:10:32 | 00:00:00 | |
| BIOWL1-15 | 2026-09-06 01:00:40 | 52.93531 | -0.02750 | 86° | 33km/h | 21465m | -27.7m/s | -55.9°C | 1.3% | 0hPa | 2.5V | 08:25:55 | 02:10:27 | 00:00:00 | |
| DM0DOS-11 | 2026-09-06 01:00:38 | 52.93533 | -0.02826 | 96° | 38km/h | 21596m | -26.9m/s | -54.2°C | 4.2% | 0hPa | 2.6V | 08:25:36 | 02:10:22 | 00:00:00 | |
| BIOWL1-15 | 2026-09-06 01:00:29 | 52.93548 | -0.02914 | 108° | 33km/h | 21758m | -27.9m/s | -53.3°C | 0.8% | 0hPa | 2.6V | 08:25:55 | 02:10:16 | 00:00:00 | |
| DM0DOS-11 | 2026-09-06 01:00:28 | 52.93559 | -0.02957 | 119° | 24km/h | 21861m | -26.6m/s | -52.7°C | 3.7% | 0hPa | 2.5V | 08:25:46 | 02:10:12 | 00:00:00 | |
| BIOWL1-15 | 2026-09-06 01:00:18 | 52.93613 | -0.03047 | 158° | 20km/h | 22195m | -26.9m/s | -52.9°C | 0.7% | 0hPa | 2.5V | 08:29:19 | 02:10:00 | 00:00:00 | |
| DM0DOS-11 | 2026-09-06 01:00:18 | 52.93602 | -0.03037 | 147° | 26km/h | 22144m | -24.8m/s | -52.8°C | 3.8% | 0hPa | 2.5V | 08:25:56 | 02:10:02 | 00:00:00 | |
| DM0DOS-11 | 2026-09-06 01:00:09 | 52.93637 | -0.03073 | 121° | 11km/h | 22426m | -29m/s | -52°C | 3.5% | 0hPa | 2.5V | 08:26:06 | 02:09:52 | 00:00:00 | |
| BIOWL1-15 | 2026-09-06 01:00:06 | 52.93636 | -0.03069 | 117° | 11km/h | 22396m | -29m/s | -51.9°C | 0.5% | 0hPa | 2.5V | 08:29:19 | 02:09:53 | 00:00:00 | |
| BIOWL1-15 | 2026-09-06 00:59:58 | 52.93642 | -0.03139 | 96° | 22km/h | 22654m | -24.7m/s | -53.3°C | 0.9% | 0hPa | 2.6V | 08:29:19 | 02:09:43 | 00:00:00 | |
| DM0DOS-11 | 2026-09-06 00:59:56 | 52.93643 | -0.03149 | 98° | 26km/h | 22678m | -23.6m/s | -53.2°C | 4% | 0hPa | 2.6V | 08:26:16 | 02:09:42 | 00:00:00 | |
| DM0DOS-11 | 2026-09-06 00:59:49 | 52.93670 | -0.03221 | 136° | 18km/h | 22966m | -26.5m/s | -51.8°C | 3.7% | 0hPa | 2.6V | 08:26:26 | 02:09:32 | 00:00:00 | |
| BIOWL1-15 | 2026-09-06 00:59:48 | 52.93666 | -0.03216 | 133° | 16km/h | 22939m | -27.5m/s | -51.9°C | 0.7% | 0hPa | 2.5V | 08:29:19 | 02:09:33 | 00:00:00 | |
| DJ2DS-15 | 2026-09-06 00:59:45 | 52.93670 | -0.03221 | 136° | 16km/h | 22966m | -26.5m/s | -51.8°C | 1.1% | -1.0hPa | 2.5V | 00:00:00 | 00:00:00 | 00:00:00 | |
| DM0DOS-11 | 2026-09-06 00:59:37 | 52.93707 | -0.03284 | 135° | 26km/h | 23257m | -31.9m/s | -51.4°C | 3.7% | 0hPa | 2.5V | 08:26:36 | 02:09:22 | 00:00:00 | |
| DB0UT-7 | 2026-09-06 00:59:33 | 52.93716 | -0.03300 | 130° | 20km/h | 23318m | -29.9m/s | -51.2°C | 3.7% | 0hPa | 2.6V | 00:00:00 | 02:09:20 | 00:00:00 | |
| DM0DOS-11 | 2026-09-06 00:59:29 | 52.93750 | -0.03346 | 158° | 16km/h | 23553m | -28.6m/s | -49.9°C | 3.4% | 0hPa | 2.6V | 08:26:46 | 02:09:12 | 00:00:00 | |
| DJ2DS-15 | 2026-09-06 00:59:27 | 52.93743 | -0.03339 | 156° | 16km/h | 23498m | -27.4m/s | -50.0°C | 3.4% | 0hPa | 2.5V | 00:00:00 | 02:09:14 | 00:00:00 | |
| DM0DOS-11 | 2026-09-06 00:59:18 | 52.93765 | -0.03380 | 92° | 20km/h | 23866m | -32m/s | -49.5°C | 3.3% | 0hPa | 2.5V | 08:26:56 | 02:09:02 | 00:00:00 | |
| DJ2DS-15 | 2026-09-06 00:59:09 | 52.93770 | -0.03440 | 104° | 24km/h | 24065m | -34.6m/s | -48.5°C | 0.8% | -1.0hPa | 2.5V | 00:00:00 | 00:00:00 | 00:00:00 | |
| DM0DOS-11 | 2026-09-06 00:59:07 | 52.93777 | -0.03481 | 106° | 26km/h | 24200m | -33.5m/s | -49.5°C | 3.2% | 0hPa | 2.5V | 08:27:06 | 02:08:52 | 00:00:00 | |
| BIOWL1-15 | 2026-09-06 00:59:06 | 52.93775 | -0.03471 | 109° | 24km/h | 24167m | -33.1m/s | -49.3°C | 0.3% | 0hPa | 2.6V | 08:29:19 | 02:08:53 | 00:00:00 | |
| DB0UT-7 | 2026-09-06 00:59:03 | 52.93780 | -0.03501 | 108° | 16km/h | 24268m | -34.1m/s | -49.2°C | 3.1% | 0hPa | 2.5V | 00:00:00 | 00:00:00 | 00:00:00 | |
| DM0DOS-11 | 2026-09-06 00:58:57 | 52.93786 | -0.03570 | 87° | 20km/h | 24529m | -32.5m/s | -49.8°C | 3.2% | 0hPa | 2.5V | 08:27:16 | 02:08:42 | 00:00:00 | |
| DM0DOS-11 | 2026-09-06 00:58:47 | 52.93804 | -0.03643 | 129° | 22km/h | 24864m | -32.9m/s | -51°C | 3.6% | 0hPa | 2.5V | 08:27:26 | 02:08:32 | 00:00:00 | |
| DJ2DS-15 | 2026-09-06 00:58:47 | 52.93797 | -0.03630 | 125° | 18km/h | 24799m | -33.2m/s | -50.7°C | 3.5% | 0hPa | 2.6V | 00:00:00 | 02:08:34 | 00:00:00 | |
| DM0DOS-11 | 2026-09-06 00:58:37 | 52.93862 | -0.03664 | 202° | 22km/h | 25195m | -31.2m/s | -49.8°C | 3.3% | 0hPa | 2.6V | 08:27:36 | 02:08:22 | 00:00:00 | |
| BIOWL1-15 | 2026-09-06 00:58:35 | 52.93870 | -0.03656 | 227° | 16km/h | 25263m | -34.7m/s | -49.1°C | 0.2% | 0hPa | 2.5V | 08:29:19 | 02:08:20 | 00:00:00 | |
| DJ2DS-15 | 2026-09-06 00:58:33 | 52.93870 | -0.03656 | 226° | 16km/h | 25263m | -34.7m/s | -49.1°C | 0.8% | -1.0hPa | 2.5V | 00:00:00 | 00:00:00 | 00:00:00 | |
| DM0DOS-11 | 2026-09-06 00:58:27 | 52.93873 | -0.03636 | 345° | 4km/h | 25570m | -41.9m/s | -50°C | 3.3% | 0hPa | 2.5V | 08:27:46 | 02:08:12 | 00:00:00 | |
| BIOWL1-15 | 2026-09-06 00:58:25 | 52.93873 | -0.03636 | 346° | 4km/h | 25570m | -41.9m/s | -50°C | 0.5% | 0hPa | 2.5V | 08:29:19 | 02:08:12 | 00:00:00 | |
| DB0UT-7 | 2026-09-06 00:58:25 | 52.93873 | -0.03636 | 346° | 9km/h | 25570m | -41.9m/s | -50.0°C | 3.3% | 0hPa | 2.5V | 08:27:00 | 02:08:12 | 00:00:00 | |
| DM0DOS-11 | 2026-09-06 00:58:17 | 52.93869 | -0.03658 | 149° | 9km/h | 25935m | -38.5m/s | -50.4°C | 3.5% | 0hPa | 2.6V | 08:27:56 | 02:08:02 | 00:00:00 | |
| BIOWL1-15 | 2026-09-06 00:58:14 | 52.93871 | -0.03660 | 140° | 9km/h | 25973m | -39.1m/s | -50.4°C | 0.6% | 0hPa | 2.5V | 08:29:19 | 02:08:01 | 00:00:00 | |
| DM0DOS-11 | 2026-09-06 00:58:06 | 52.93896 | -0.03661 | 199° | 9km/h | 26301m | -29.2m/s | -49.5°C | 3.4% | 0hPa | 2.6V | 08:28:06 | 02:07:52 | 00:00:00 | |
| BIOWL1-15 | 2026-09-06 00:58:03 | 52.93900 | -0.03660 | 182° | 4km/h | 26391m | -34m/s | -49.4°C | 0.4% | 0hPa | 2.5V | 08:29:19 | 02:07:49 | 00:00:00 | |
| DM0DOS-11 | 2026-09-06 00:57:56 | 52.93908 | -0.03677 | 127° | 11km/h | 26627m | -33.4m/s | -49.2°C | 3.3% | 0hPa | 2.5V | 08:28:16 | 02:07:42 | 00:00:00 | |
| DM0DOS-11 | 2026-09-06 00:57:50 | 52.93928 | -0.03675 | 283° | 9km/h | 26941m | -36.2m/s | -48.3°C | 3% | 0hPa | 2.6V | 08:28:26 | 02:07:32 | 00:00:00 | |
| BIOWL1-15 | 2026-09-06 00:57:40 | 52.93914 | -0.03663 | 20° | 7km/h | 27213m | -35m/s | -49.1°C | 0.5% | 0hPa | 2.5V | 08:29:19 | 02:07:24 | 00:00:00 | |
| DM0DOS-11 | 2026-09-06 00:57:38 | 52.93911 | -0.03667 | 54° | 11km/h | 27280m | -34.1m/s | -49°C | 3.4% | 0hPa | 2.5V | 08:28:36 | 02:07:22 | 00:00:00 | |
| BIOWL1-15 | 2026-09-06 00:57:28 | 52.93901 | -0.03716 | 88° | 16km/h | 27618m | -43.3m/s | -48.3°C | 0.4% | 0hPa | 2.6V | 08:29:19 | 02:07:13 | 00:00:00 | |
| DM0DOS-11 | 2026-09-06 00:57:26 | 52.93902 | -0.03723 | 92° | 18km/h | 27660m | -41.9m/s | -48.4°C | 3.3% | 0hPa | 2.5V | 08:28:46 | 02:07:12 | 00:00:00 | |
| BIOWL1-15 | 2026-09-06 00:57:16 | 52.93922 | -0.03784 | 152° | 16km/h | 28064m | -46m/s | -47.4°C | 0.3% | 0hPa | 2.5V | 08:29:19 | 02:07:02 | 00:00:00 | |
| DM0DOS-11 | 2026-09-06 00:57:16 | 52.93922 | -0.03784 | 151° | 16km/h | 28064m | -46m/s | -47.4°C | 3% | 0hPa | 2.5V | 08:28:56 | 02:07:02 | 00:00:00 | |
| AU51GT2 | 2026-09-06 00:57:13 | 52.93935 | -0.03791 | 164° | 15km/h | 28201m | -43.7m/s | -47.3°C | 0.9% | -1.0hPa | 2.5V | 00:00:00 | 00:00:00 | 00:00:00 | |
| DM0DOS-11 | 2026-09-06 00:57:06 | 52.93959 | -0.03801 | 151° | 11km/h | 28466m | -36.8m/s | -47°C | 2.9% | 0hPa | 2.5V | 08:29:06 | 02:06:52 | 00:00:00 | |
| BIOWL1-15 | 2026-09-06 00:57:02 | 52.93965 | -0.03810 | 123° | 13km/h | 28595m | -44.9m/s | -46.9°C | 0.1% | 0hPa | 2.6V | 08:29:19 | 02:06:49 | 00:00:00 | |
| DM0DOS-11 | 2026-09-06 00:56:56 | 52.93982 | -0.03844 | 129° | 18km/h | 28873m | -37.2m/s | -47.5°C | 3% | 0hPa | 2.5V | 08:29:16 | 02:06:42 | 00:00:00 | |
| BIOWL9-15 | 2026-09-06 00:56:53 | 52.93988 | -0.03856 | 136° | 18km/h | 28941m | -31.0m/s | -47.7°C | 0.9% | -1.0hPa | 2.5V | 00:00:00 | 00:00:00 | 00:00:00 | |
| DM0DOS-11 | 2026-09-06 00:56:50 | 52.94028 | -0.03879 | 178° | 20km/h | 29149m | -25.2m/s | -47.8°C | 3.3% | 0hPa | 2.5V | 08:30:00 | 02:06:32 | 00:00:00 | |
| BIOWL1-15 | 2026-09-06 00:56:48 | 52.94023 | -0.03878 | 174° | 20km/h | 29124m | -26.2m/s | -47.9°C | 0.4% | 0hPa | 2.6V | 18:12:15 | 02:06:33 | 00:00:00 | |
| DJ2DS-15 | 2026-09-06 00:56:47 | 52.94018 | -0.03877 | 170° | 15km/h | 29098m | -25.7m/s | -47.8°C | 3.3% | 0hPa | 2.6V | 00:00:00 | 02:06:34 | 00:00:00 | |
| DJ2DS-15 | 2026-09-06 00:56:45 | 52.94033 | -0.03879 | 180° | 16km/h | 29175m | -25.9m/s | -47.7°C | 0.9% | -1.0hPa | 2.6V | 00:00:00 | 00:00:00 | 00:00:00 | |
| AU51GT2 | 2026-09-06 00:56:42 | 52.94047 | -0.03883 | 149° | 9km/h | 29284m | -29.9m/s | -47.4°C | 0.8% | -1.0hPa | 2.6V | 00:00:00 | 00:00:00 | 00:00:00 | |
| DM0DOS-11 | 2026-09-06 00:56:40 | 52.94059 | -0.03893 | 151° | 11km/h | 29424m | -28m/s | -46.8°C | 3% | 0hPa | 2.6V | 08:30:00 | 02:06:22 | 00:00:00 | |
| BIOWL1-15 | 2026-09-06 00:56:36 | 52.94056 | -0.03891 | 142° | 11km/h | 29397m | -27m/s | -46.9°C | 0.2% | 0hPa | 2.6V | 18:12:15 | 02:06:23 | 00:00:00 | |
| DB0UT-7 | 2026-09-06 00:56:33 | 52.94064 | -0.03897 | 150° | 22km/h | 29477m | -23.2m/s | -46.5°C | 2.9% | 0hPa | 2.5V | 00:00:00 | 00:00:00 | 00:00:00 | |
| DM0DOS-11 | 2026-09-06 00:56:30 | 52.94097 | -0.03918 | 161° | 24km/h | 29642m | -16.8m/s | -46.4°C | 2.9% | 0hPa | 2.5V | 08:30:00 | 02:06:12 | 00:00:00 | |
| BIOWL1-15 | 2026-09-06 00:56:25 | 52.94115 | -0.03923 | 174° | 26km/h | 29691m | -16.3m/s | -46.1°C | 0.1% | 0hPa | 2.5V | 18:12:15 | 02:06:09 | 00:00:00 | |
| BIOWL9-15 | 2026-09-06 00:56:22 | 52.94115 | -0.03923 | 173° | 26km/h | 29691m | -16.3m/s | -46.1°C | 0.8% | -1.0hPa | 2.6V | 00:00:00 | 00:00:00 | 00:00:00 | |
| DM0DOS-11 | 2026-09-06 00:56:20 | 52.94164 | -0.03900 | 208° | 31km/h | 29798m | -13.6m/s | -46.5°C | 3% | 0hPa | 2.6V | 08:30:00 | 02:06:02 | 00:00:00 | |
| BIOWL1-15 | 2026-09-06 00:56:14 | 52.94171 | -0.03893 | 214° | 33km/h | 29812m | -14.4m/s | -46.5°C | 0.2% | 0hPa | 2.6V | 18:12:15 | 02:06:01 | 00:00:00 | |
| AU51GT2 | 2026-09-06 00:56:11 | 52.94201 | -0.03862 | 209° | 24km/h | 29885m | -15.4m/s | -46.2°C | 0.8% | -1.0hPa | 2.6V | 00:00:00 | 00:00:00 | 00:00:00 | |
| DM0DOS-11 | 2026-09-06 00:56:08 | 52.94220 | -0.03849 | 205° | 18km/h | 29946m | -16.2m/s | -46.1°C | 3% | 0hPa | 2.6V | 08:30:00 | 02:05:52 | 00:00:00 | |
| BIOWL1-15 | 2026-09-06 00:56:04 | 52.94224 | -0.03846 | 212° | 15km/h | 29961m | -14.6m/s | -46.1°C | 0.2% | 0hPa | 2.5V | 18:12:15 | 02:05:51 | 00:00:00 | |
| DB0UT-7 | 2026-09-06 00:56:03 | 52.94226 | -0.03843 | 207° | 11km/h | 29976m | -14.4m/s | -46.1°C | 3.0% | 0hPa | 2.5V | 00:00:00 | 02:05:50 | 00:00:00 | |
| DM0DOS-11 | 2026-09-06 00:55:56 | 52.94234 | -0.03818 | 210° | 5km/h | 30087m | -13.2m/s | -45.8°C | 3.1% | 0hPa | 2.5V | 08:30:00 | 02:05:42 | 00:00:00 | |
| BIOWL1-15 | 2026-09-06 00:55:56 | 52.94235 | -0.03818 | 187° | 7km/h | 30101m | -12.8m/s | -45.7°C | 0.3% | 0hPa | 2.6V | 18:12:15 | 02:05:41 | 00:00:00 | |
| DM0DOS-11 | 2026-09-06 00:55:49 | 52.94233 | -0.03844 | 22° | 13km/h | 30380m | -34.5m/s | -44.2°C | 2.5% | 0hPa | 2.6V | 08:30:00 | 02:05:32 | 00:00:00 | |
| BIOWL1-15 | 2026-09-06 00:55:42 | 52.94223 | -0.03851 | 20° | 16km/h | 30449m | -10.3m/s | -44.5°C | 0% | 0hPa | 2.5V | 18:12:15 | 02:05:29 | 00:00:00 | |
| AU51GT2 | 2026-09-06 00:55:40 | 52.94213 | -0.03856 | 0° | 7km/h | 30446m | 6.4m/s | -44.5°C | 0.7% | -1.0hPa | 2.5V | 00:00:00 | 00:00:00 | 00:00:00 | |
| DM0DOS-11 | 2026-09-06 00:55:39 | 52.94213 | -0.03854 | 124° | 4km/h | 30425m | 6m/s | -44.6°C | 2.7% | 0hPa | 2.5V | 08:30:00 | 02:05:22 | 00:00:00 | |
| BIOWL1-15 | 2026-09-06 00:55:32 | 52.94213 | -0.03866 | 72° | 11km/h | 30410m | 4.8m/s | -44.7°C | 0% | 0hPa | 2.6V | 18:12:15 | 02:05:19 | 00:00:00 | |
| DM0DOS-11 | 2026-09-06 00:55:29 | 52.94211 | -0.03869 | 45° | 4km/h | 30371m | 5.5m/s | -44.7°C | 2.6% | 0hPa | 2.6V | 08:30:00 | 02:05:12 | 00:00:00 | |
| BIOWL1-15 | 2026-09-06 00:55:21 | 52.94207 | -0.03869 | 53° | 4km/h | 30313m | 5.6m/s | -45.1°C | 0% | 0hPa | 2.5V | 18:12:15 | 02:05:01 | 00:00:00 | |
| DM0DOS-11 | 2026-09-06 00:55:18 | 52.94208 | -0.03867 | 56° | 7km/h | 30318m | 4.8m/s | -45.1°C | 2.7% | 0hPa | 2.5V | 08:30:00 | 02:05:02 | 00:00:00 | |
| BIOWL1-15 | 2026-09-06 00:55:09 | 52.94206 | -0.03861 | 317° | 4km/h | 30286m | 6.5m/s | -45.3°C | 0% | 0hPa | 2.5V | 18:12:15 | 02:04:56 | 00:00:00 | |
| AU51GT2 | 2026-09-06 00:55:09 | 52.94205 | -0.03861 | 18° | 4km/h | 30280m | 5.3m/s | -45.4°C | 0.7% | -1.0hPa | 2.5V | 00:00:00 | 00:00:00 | 00:00:00 | |
| DM0DOS-11 | 2026-09-06 00:55:07 | 52.94201 | -0.03864 | 0° | 4km/h | 30265m | 5.7m/s | -45.6°C | 2.8% | 0hPa | 2.5V | 08:30:00 | 02:04:52 | 00:00:00 | |
| DJ2DS-15 | 2026-09-06 00:55:07 | 52.94204 | -0.03862 | 33° | 5km/h | 30275m | 4.3m/s | -45.4°C | 2.8% | 0hPa | 2.6V | 00:00:00 | 02:04:54 | 00:00:00 | |
| DB0UT-7 | 2026-09-06 00:55:03 | 52.94199 | -0.03860 | 291° | 5km/h | 30254m | 5.0m/s | -45.7°C | 2.8% | 0hPa | 2.6V | 00:00:00 | 02:04:50 | 00:00:00 | |
| DM0DOS-11 | 2026-09-06 00:54:57 | 52.94201 | -0.03863 | 252° | 4km/h | 30208m | 4.5m/s | -45.9°C | 2.8% | 0hPa | 2.6V | 08:30:00 | 02:04:41 | 00:00:00 | |
| BIOWL1-15 | 2026-09-06 00:54:48 | 52.94213 | -0.03883 | 61° | 4km/h | 30137m | 4.5m/s | -46.1°C | 0.1% | 0hPa | 2.5V | 18:12:15 | 02:04:27 | 00:00:00 | |
| DJ2DS-15 | 2026-09-06 00:54:47 | 52.94208 | -0.03876 | 154° | 7km/h | 30173m | 5.1m/s | -45.9°C | 2.8% | 0hPa | 2.5V | 00:00:00 | 02:04:34 | 00:00:00 | |
| DM0DOS-11 | 2026-09-06 00:54:46 | 52.94215 | -0.03878 | 178° | 2km/h | 30158m | 5.3m/s | -46°C | 2.8% | 0hPa | 2.5V | 08:30:00 | 02:04:31 | 00:00:00 | |
| AU51GT2 | 2026-09-06 00:54:38 | 52.94213 | -0.03880 | 262° | 7km/h | 30121m | 5.5m/s | -46.2°C | 0.8% | -1.0hPa | 2.6V | 00:00:00 | 00:00:00 | 00:00:00 | |
| DM0DOS-11 | 2026-09-06 00:54:35 | 52.94214 | -0.03874 | 163° | 2km/h | 30104m | 6m/s | -46.2°C | 2.8% | 0hPa | 2.6V | 08:30:00 | 02:04:21 | 00:00:00 | |
| DB0UT-7 | 2026-09-06 00:54:33 | 52.94214 | -0.03875 | 116° | 15km/h | 30099m | 4.9m/s | -46.2°C | 2.8% | 0hPa | 2.5V | 00:00:00 | 00:00:00 | 00:00:00 | |
| DM0DOS-11 | 2026-09-06 00:54:30 | 52.94231 | -0.03872 | 226° | 9km/h | 30051m | 4.7m/s | -46.5°C | 2.9% | 0hPa | 2.5V | 08:30:00 | 02:04:11 | 00:00:00 | |
| BIOWL1-15 | 2026-09-06 00:54:27 | 52.94226 | -0.03875 | 191° | 11km/h | 30066m | 6.2m/s | -46.4°C | 0.1% | 0hPa | 2.6V | 18:12:15 | 02:04:14 | 00:00:00 | |
| DM0DOS-11 | 2026-09-06 00:54:19 | 52.94255 | -0.03834 | 200° | 20km/h | 29995m | 5.7m/s | -46.5°C | 2.9% | 0hPa | 2.6V | 08:30:00 | 02:04:01 | 00:00:00 | |
| BIOWL1-15 | 2026-09-06 00:54:17 | 52.94251 | -0.03836 | 193° | 16km/h | 30001m | 6m/s | -46.5°C | 0.1% | 0hPa | 2.5V | 18:12:15 | 02:04:02 | 00:00:00 | |
| DM0DOS-11 | 2026-09-06 00:54:09 | 52.94294 | -0.03781 | 212° | 26km/h | 29942m | 5.4m/s | -46.6°C | 2.9% | 0hPa | 2.6V | 08:30:00 | 02:03:51 | 00:00:00 | |
| BIOWL1-15 | 2026-09-06 00:54:05 | 52.94334 | -0.03742 | 223° | 33km/h | 29899m | 4.3m/s | -46.8°C | 0.1% | 0hPa | 2.5V | 18:12:15 | 02:03:43 | 00:00:00 | |
| DJ2DS-15 | 2026-09-06 00:54:05 | 52.94288 | -0.03787 | 219° | 27km/h | 29947m | 3.9m/s | -46.6°C | 3.0% | 0hPa | 2.5V | 00:00:00 | 02:03:52 | 00:00:00 | |
| DB0UT-7 | 2026-09-06 00:54:03 | 52.94299 | -0.03776 | 206° | 27km/h | 29936m | 6.4m/s | -46.6°C | 2.9% | 0hPa | 2.5V | 00:00:00 | 02:03:50 | 00:00:00 | |
| DM0DOS-11 | 2026-09-06 00:53:59 | 52.94345 | -0.03726 | 215° | 27km/h | 29889m | 6.2m/s | -46.8°C | 3% | 0hPa | 2.5V | 08:30:00 | 02:03:41 | 00:00:00 | |
| BIOWL1-15 | 2026-09-06 00:53:51 | 52.94363 | -0.03716 | 188° | 26km/h | 29872m | 4.8m/s | -46.9°C | 0.2% | 0hPa | 2.6V | 18:12:15 | 02:03:38 | 00:00:00 | |
| DM0DOS-11 | 2026-09-06 00:53:47 | 52.94415 | -0.03685 | 198° | 26km/h | 29832m | 5.8m/s | -46.8°C | 3% | 0hPa | 2.6V | 08:30:00 | 02:03:31 | 00:00:00 | |
| BIOWL1-15 | 2026-09-06 00:53:41 | 52.94432 | -0.03677 | 197° | 24km/h | 29816m | 6.5m/s | -46.7°C | 0.2% | 0hPa | 2.5V | 18:12:15 | 02:03:28 | 00:00:00 | |
| DM0DOS-11 | 2026-09-06 00:53:37 | 52.94480 | -0.03673 | 167° | 24km/h | 29775m | 6.1m/s | -46.5°C | 2.9% | 0hPa | 2.5V | 08:30:00 | 02:03:21 | 00:00:00 | |
| BIOWL1-15 | 2026-09-06 00:53:31 | 52.94496 | -0.03674 | 187° | 20km/h | 29758m | 5m/s | -46.5°C | 0.1% | 0hPa | 2.5V | 18:12:15 | 02:03:18 | 00:00:00 | |
| BIOWL1-15 | 2026-09-06 00:53:19 | 52.94560 | -0.03693 | 129° | 13km/h | 29681m | 6.5m/s | -46.7°C | 0.2% | 0hPa | 2.5V | 18:12:15 | 02:03:05 | 00:00:00 | |
| DM0DOS-11 | 2026-09-06 00:53:16 | 52.94570 | -0.03702 | 153° | 16km/h | 29657m | 6.6m/s | -46.8°C | 2.9% | 0hPa | 2.6V | 08:30:00 | 02:03:01 | 00:00:00 | |
| BIOWL1-15 | 2026-09-06 00:53:09 | 52.94603 | -0.03721 | 173° | 33km/h | 29627m | 5.9m/s | -46.8°C | 0.2% | 0hPa | 2.5V | 18:12:15 | 02:02:56 | 00:00:00 | |
| DM0DOS-11 | 2026-09-06 00:53:06 | 52.94633 | -0.03742 | 126° | 20km/h | 29599m | 5.6m/s | -46.8°C | 3% | 0hPa | 2.5V | 08:30:00 | 02:02:51 | 00:00:00 | |
| BIOWL1-15 | 2026-09-06 00:52:58 | 52.94647 | -0.03776 | 137° | 24km/h | 29557m | 5.5m/s | -46.8°C | 0.2% | 0hPa | 2.5V | 18:12:15 | 02:02:44 | 00:00:00 | |
| DM0DOS-11 | 2026-09-06 00:52:56 | 52.94664 | -0.03792 | 165° | 27km/h | 29540m | 6.6m/s | -46.8°C | 3% | 0hPa | 2.5V | 08:30:00 | 02:02:41 | 00:00:00 | |
| BIOWL1-15 | 2026-09-06 00:52:50 | 52.94685 | -0.03798 | 88° | 13km/h | 29505m | 6m/s | -46.7°C | 0.2% | 0hPa | 2.5V | 18:12:15 | 02:02:35 | 00:00:00 | |
| DM0DOS-11 | 2026-09-06 00:52:49 | 52.94678 | -0.03819 | 40° | 11km/h | 29481m | 5.3m/s | -46.7°C | 2.9% | 0hPa | 2.5V | 08:30:00 | 02:02:31 | 00:00:00 | |
| BIOWL1-15 | 2026-09-06 00:52:37 | 52.94692 | -0.03839 | 163° | 9km/h | 29441m | 6.3m/s | -46.9°C | 0.2% | 0hPa | 2.6V | 18:12:15 | 02:02:24 | 00:00:00 | |
| DM0DOS-11 | 2026-09-06 00:52:36 | 52.94690 | -0.03842 | 26° | 13km/h | 29423m | 6.3m/s | -47°C | 3% | 0hPa | 2.5V | 08:30:00 | 02:02:21 | 00:00:00 | |
| DB0UT-7 | 2026-09-06 00:52:33 | 52.94687 | -0.03845 | 35° | 9km/h | 29417m | 5.9m/s | -47.0°C | 3.0% | 0hPa | 2.6V | 00:00:00 | 00:00:00 | 00:00:00 | |
| DM0DOS-11 | 2026-09-06 00:52:29 | 52.94685 | -0.03860 | 142° | 15km/h | 29357m | 5.6m/s | -47°C | 2.9% | 0hPa | 2.6V | 08:30:00 | 02:02:10 | 00:00:00 | |
| BIOWL1-15 | 2026-09-06 00:52:26 | 52.94678 | -0.03854 | 196° | 4km/h | 29377m | 5.7m/s | -46.9°C | 0.2% | 0hPa | 2.5V | 18:12:15 | 02:02:13 | 00:00:00 | |
| DM0DOS-11 | 2026-09-06 00:52:18 | 52.94702 | -0.03881 | 191° | 4km/h | 29302m | 6.5m/s | -47.2°C | 3% | 0hPa | 2.5V | 08:30:00 | 02:02:01 | 00:00:00 | |
| BIOWL1-15 | 2026-09-06 00:52:16 | 52.94699 | -0.03879 | 150° | 9km/h | 29314m | 5.7m/s | -47.2°C | 0.2% | 0hPa | 2.6V | 18:12:15 | 02:02:03 | 00:00:00 | |
| BIOWL9-15 | 2026-09-06 00:52:14 | 52.94703 | -0.03880 | 214° | 4km/h | 29296m | 4.7m/s | -47.3°C | 0.8% | -1.0hPa | 2.5V | 00:00:00 | 00:00:00 | 00:00:00 | |
| DM0DOS-11 | 2026-09-06 00:52:08 | 52.94730 | -0.03881 | 194° | 9km/h | 29242m | 5.1m/s | -47.4°C | 3% | 0hPa | 2.5V | 08:30:00 | 02:01:51 | 00:00:00 | |
| BIOWL1-15 | 2026-09-06 00:52:05 | 52.94728 | -0.03882 | 197° | 11km/h | 29248m | 5.6m/s | -47.4°C | 0.3% | 0hPa | 2.5V | 18:12:15 | 02:01:52 | 00:00:00 | |
| DJ2DS-15 | 2026-09-06 00:52:05 | 52.94728 | -0.03882 | 197° | 16km/h | 29248m | 5.5m/s | -47.3°C | 3.0% | 0hPa | 2.5V | 00:00:00 | 02:01:52 | 00:00:00 | |
| DB0UT-7 | 2026-09-06 00:52:03 | 52.94733 | -0.03880 | 182° | 18km/h | 29237m | 6.2m/s | -47.3°C | 3.1% | 0hPa | 2.5V | 00:00:00 | 02:01:50 | 00:00:00 | |
| AU51GT2 | 2026-09-06 00:52:02 | 52.94736 | -0.03881 | 165° | 15km/h | 29230m | 6.7m/s | -47.4°C | 0.8% | -1.0hPa | 2.6V | 00:00:00 | 00:00:00 | 00:00:00 | |
| DM0DOS-11 | 2026-09-06 00:51:58 | 52.94776 | -0.03899 | 174° | 24km/h | 29180m | 6m/s | -47.3°C | 3% | 0hPa | 2.6V | 08:30:00 | 02:01:41 | 00:00:00 | |
| BIOWL1-15 | 2026-09-06 00:51:54 | 52.94776 | -0.03899 | 175° | 24km/h | 29180m | 6m/s | -47.3°C | 0.2% | 0hPa | 2.6V | 18:12:15 | 02:01:41 | 00:00:00 | |
| DM0DOS-11 | 2026-09-06 00:51:47 | 52.94818 | -0.03918 | 163° | 24km/h | 29120m | 5.9m/s | -47.4°C | 3% | 0hPa | 2.6V | 08:30:00 | 02:01:31 | 00:00:00 | |
| BIOWL1-15 | 2026-09-06 00:51:44 | 52.94818 | -0.03918 | 163° | 24km/h | 29120m | 5.9m/s | -47.4°C | 0.2% | 0hPa | 2.6V | 18:12:15 | 02:01:31 | 00:00:00 | |
| BIOWL9-15 | 2026-09-06 00:51:42 | 52.94828 | -0.03923 | 164° | 16km/h | 29107m | 5.9m/s | -47.4°C | 0.8% | -1.0hPa | 2.6V | 00:00:00 | 00:00:00 | 00:00:00 | |
| DM0DOS-11 | 2026-09-06 00:51:37 | 52.94855 | -0.03954 | 127° | 16km/h | 29059m | 4.5m/s | -47.4°C | 3.1% | 0hPa | 2.6V | 08:30:00 | 02:01:21 | 00:00:00 | |
| BIOWL1-15 | 2026-09-06 00:51:33 | 52.94863 | -0.03967 | 142° | 29km/h | 29047m | 6.9m/s | -47.4°C | 0.3% | 0hPa | 2.5V | 18:12:15 | 02:01:19 | 00:00:00 | |
| DB0UT-7 | 2026-09-06 00:51:33 | 52.94858 | -0.03960 | 135° | 20km/h | 29054m | 6.4m/s | -47.3°C | 3.0% | 0hPa | 2.5V | 00:00:00 | 00:00:00 | 00:00:00 | |
| AU51GT2 | 2026-09-06 00:51:31 | 52.94869 | -0.03974 | 148° | 35km/h | 29041m | 6.0m/s | -47.4°C | -1.0% | -1.0hPa | 2.5V | 00:00:00 | 00:00:00 | 00:00:00 | |
| DM0DOS-11 | 2026-09-06 00:51:27 | 52.94919 | -0.04005 | 146° | 20km/h | 28999m | 6.6m/s | -47.2°C | 3.1% | 0hPa | 2.5V | 08:30:00 | 02:01:11 | 00:00:00 | |
| BIOWL1-15 | 2026-09-06 00:51:26 | 52.94926 | -0.04017 | 118° | 18km/h | 28987m | 5.8m/s | -47.2°C | 0.3% | 0hPa | 2.6V | 18:12:15 | 02:01:09 | 00:00:00 | |
| BIOWL1-15 | 2026-09-06 00:51:13 | 52.94965 | -0.04092 | 129° | 24km/h | 28915m | 6.8m/s | -46.9°C | 0.2% | 0hPa | 2.5V | 18:12:15 | 02:00:57 | 00:00:00 | |
| BIOWL9-15 | 2026-09-06 00:51:12 | 52.94961 | -0.04085 | 137° | 22km/h | 28921m | 5.5m/s | -47.0°C | 0.8% | -1.0hPa | 2.6V | 00:00:00 | 00:00:00 | 00:00:00 | |
| DM0DOS-11 | 2026-09-06 00:51:07 | 52.94977 | -0.04134 | 120° | 9km/h | 28880m | 4.3m/s | -46.9°C | 3% | 0hPa | 2.6V | 08:30:00 | 02:00:51 | 00:00:00 | |
| BIOWL1-15 | 2026-09-06 00:51:02 | 52.94990 | -0.04166 | 128° | 26km/h | 28851m | 4.6m/s | -47°C | 0.3% | 0hPa | 2.5V | 18:12:15 | 02:00:46 | 00:00:00 | |
| AU51GT2 | 2026-09-06 00:51:00 | 52.94987 | -0.04158 | 126° | 26km/h | 28857m | 5.2m/s | 0°C | -1.0% | -1.0hPa | 2.5V | 00:00:00 | 00:00:00 | 00:00:00 | |
| DB0UT-7 | 2026-09-06 00:50:59 | 52.94990 | -0.04166 | 129° | 11km/h | 28852m | 4.5m/s | -47.0°C | 3.1% | 0hPa | 2.5V | 00:00:00 | 02:00:46 | 00:00:00 | |
| DM0DOS-11 | 2026-09-06 00:50:56 | 52.95005 | -0.04187 | 141° | 9km/h | 28822m | 6m/s | -47°C | 3% | 0hPa | 2.5V | 08:30:00 | 02:00:41 | 00:00:00 | |
| BIOWL1-15 | 2026-09-06 00:50:48 | 52.95004 | -0.04220 | 58° | 18km/h | 28786m | 5.2m/s | -46.8°C | 0.2% | 0hPa | 2.6V | 18:12:15 | 02:00:35 | 00:00:00 | |
| DM0DOS-11 | 2026-09-06 00:50:46 | 52.94997 | -0.04256 | 91° | 22km/h | 28763m | 5.1m/s | -46.8°C | 3% | 0hPa | 2.5V | 08:30:00 | 02:00:31 | 00:00:00 | |
| BIOWL1-15 | 2026-09-06 00:50:37 | 52.95021 | -0.04296 | 98° | 15km/h | 28711m | 6.4m/s | -46.8°C | 0.3% | 0hPa | 2.5V | 18:12:15 | 02:00:22 | 00:00:00 | |
| DM0DOS-11 | 2026-09-06 00:50:36 | 52.95021 | -0.04302 | 75° | 13km/h | 28704m | 6.8m/s | -46.8°C | 3% | 0hPa | 2.6V | 08:30:00 | 02:00:21 | 00:00:00 | |
| BIOWL1-15 | 2026-09-06 00:50:27 | 52.95030 | -0.04354 | 159° | 18km/h | 28653m | 5.2m/s | -46.5°C | 0.1% | 0hPa | 2.6V | 18:12:15 | 02:00:12 | 00:00:00 | |
| DM0DOS-11 | 2026-09-06 00:50:26 | 52.95034 | -0.04357 | 157° | 18km/h | 28648m | 4.7m/s | -46.5°C | 2.9% | 0hPa | 2.6V | 08:30:00 | 02:00:11 | 00:00:00 | |
| DJ2DS-15 | 2026-09-06 00:50:25 | 52.95030 | -0.04354 | 160° | 15km/h | 28653m | 5.2m/s | -46.5°C | 2.9% | 0hPa | 2.6V | 00:00:00 | 02:00:12 | 00:00:00 | |
| DM0DOS-11 | 2026-09-06 00:50:16 | 52.95041 | -0.04407 | 83° | 15km/h | 28590m | 5.9m/s | -46.4°C | 2.9% | 0hPa | 2.5V | 08:30:00 | 02:00:01 | 00:00:00 | |
| BIOWL1-15 | 2026-09-06 00:50:13 | 52.95045 | -0.04424 | 128° | 15km/h | 28574m | 6m/s | -46.4°C | 0.2% | 0hPa | 2.5V | 18:12:15 | 01:59:58 | 00:00:00 | |
| DJ2DS-15 | 2026-09-06 00:50:08 | 52.95050 | -0.04432 | 138° | 5km/h | 28558m | 4.5m/s | -46.5°C | 0.8% | -1.0hPa | 2.5V | 00:00:00 | 00:00:00 | 00:00:00 | |
| DM0DOS-11 | 2026-09-06 00:50:06 | 52.95055 | -0.04451 | 106° | 18km/h | 28536m | 4.7m/s | -46.6°C | 2.9% | 0hPa | 2.5V | 08:30:00 | 01:59:51 | 00:00:00 | |
| DJ2DS-15 | 2026-09-06 00:50:05 | 52.95053 | -0.04444 | 105° | 13km/h | 28541m | 5.4m/s | -46.5°C | 2.9% | 0hPa | 2.6V | 00:00:00 | 01:59:52 | 00:00:00 | |
| DM0DOS-11 | 2026-09-06 00:49:56 | 52.95061 | -0.04482 | 123° | 9km/h | 28480m | 6.6m/s | -46.6°C | 2.9% | 0hPa | 2.6V | 08:30:00 | 01:59:41 | 00:00:00 | |
| DM0DOS-11 | 2026-09-06 00:49:46 | 52.95096 | -0.04511 | 155° | 5km/h | 28424m | 5.9m/s | -46.6°C | 2.9% | 0hPa | 2.6V | 08:30:00 | 01:59:31 | 00:00:00 | |
| DJ2DS-15 | 2026-09-06 00:49:45 | 52.95094 | -0.04510 | 172° | 13km/h | 28430m | 4.7m/s | -46.6°C | 2.9% | 0hPa | 2.5V | 00:00:00 | 01:59:32 | 00:00:00 | |
| DB0UT-7 | 2026-09-06 00:49:42 | 52.95098 | -0.04515 | 122° | 18km/h | 28413m | 5.5m/s | -46.6°C | 2.9% | 0hPa | 2.5V | 00:00:00 | 00:00:00 | 00:00:00 | |
| DM0DOS-11 | 2026-09-06 00:49:36 | 52.95129 | -0.04542 | 143° | 20km/h | 28367m | 4.7m/s | -46.7°C | 2.9% | 0hPa | 2.5V | 08:30:00 | 01:59:21 | 00:00:00 | |
| DM0DOS-11 | 2026-09-06 00:49:26 | 52.95152 | -0.04570 | 166° | 15km/h | 28311m | 6m/s | -46.7°C | 2.9% | 0hPa | 2.5V | 08:30:00 | 01:59:11 | 00:00:00 | |
| DJ2DS-15 | 2026-09-06 00:49:25 | 52.95149 | -0.04568 | 144° | 18km/h | 28317m | 6.1m/s | -46.6°C | 2.9% | 0hPa | 2.5V | 00:00:00 | 01:59:12 | 08:30:00 | |
| DM0DOS-11 | 2026-09-06 00:49:16 | 52.95202 | -0.04603 | 170° | 11km/h | 28255m | 5.5m/s | -46.8°C | 2.9% | 0hPa | 2.6V | 08:30:00 | 01:59:01 | 00:00:00 | |
| DM0DOS-11 | 2026-09-06 00:49:06 | 52.95236 | -0.04647 | 137° | 26km/h | 28197m | 5.4m/s | -47.1°C | 3% | 0hPa | 2.6V | 08:30:00 | 01:58:51 | 00:00:00 | |
| DJ2DS-15 | 2026-09-06 00:49:05 | 52.95231 | -0.04640 | 139° | 22km/h | 28203m | 6.1m/s | -47.0°C | 3.0% | 0hPa | 2.5V | 00:00:00 | 01:58:52 | 00:00:00 | |
| DM0DOS-11 | 2026-09-06 00:48:56 | 52.95271 | -0.04690 | 150° | 18km/h | 28140m | 5.9m/s | -47.2°C | 3% | 0hPa | 2.5V | 08:30:00 | 01:58:41 | 00:00:00 | |
| BIOWL1-15 | 2026-09-06 00:48:53 | 52.95275 | -0.04694 | 154° | 20km/h | 28134m | 5.3m/s | -47.2°C | 0.2% | 0hPa | 2.5V | 18:12:15 | 01:58:40 | 00:00:00 | |
| DB0UT-7 | 2026-09-06 00:48:49 | 52.95297 | -0.04718 | 145° | 24km/h | 28111m | 4.9m/s | -47.2°C | 3.0% | 0hPa | 2.5V | 00:00:00 | 01:58:36 | 00:00:00 | |
| DM0DOS-11 | 2026-09-06 00:48:46 | 52.95330 | -0.04741 | 159° | 24km/h | 28082m | 6.4m/s | -47.2°C | 3% | 0hPa | 2.5V | 08:30:00 | 01:58:31 | 00:00:00 | |
| BIOWL1-15 | 2026-09-06 00:48:43 | 52.95336 | -0.04745 | 146° | 24km/h | 28076m | 6m/s | -47.2°C | 0.2% | 0hPa | 2.5V | 18:12:15 | 01:58:30 | 00:00:00 | |
| DM0DOS-11 | 2026-09-06 00:48:36 | 52.95370 | -0.04800 | 147° | 35km/h | 28024m | 4.8m/s | -47.4°C | 3% | 0hPa | 2.6V | 08:30:00 | 01:58:21 | 00:00:00 | |
| BIOWL1-15 | 2026-09-06 00:48:32 | 52.95390 | -0.04818 | 155° | 22km/h | 28007m | 5.9m/s | -47.7°C | 0.3% | 0hPa | 2.5V | 18:12:15 | 01:58:18 | 00:00:00 | |
| DM0DOS-11 | 2026-09-06 00:48:26 | 52.95405 | -0.04873 | 112° | 27km/h | 27967m | 5.8m/s | -47.9°C | 3.1% | 0hPa | 2.6V | 08:30:00 | 01:58:11 | 00:00:00 | |
| BIOWL1-15 | 2026-09-06 00:48:24 | 52.95411 | -0.04892 | 120° | 26km/h | 27956m | 4.7m/s | -47.9°C | 0.3% | 0hPa | 2.5V | 18:12:15 | 01:58:09 | 00:00:00 | |
| DJ2DS-15 | 2026-09-06 00:48:20 | 52.95417 | -0.04911 | 120° | 26km/h | 27946m | 6.0m/s | -47.9°C | 0.9% | -1.0hPa | 2.5V | 00:00:00 | 00:00:00 | 00:00:00 | |
| DB0UT-7 | 2026-09-06 00:48:19 | 52.95421 | -0.04921 | 121° | 26km/h | 27939m | 5.8m/s | -47.9°C | 3.1% | 0hPa | 2.5V | 00:00:00 | 00:00:00 | 00:00:00 | |
| DM0DOS-11 | 2026-09-06 00:48:16 | 52.95440 | -0.04961 | 126° | 20km/h | 27910m | 5.1m/s | -47.8°C | 3.1% | 0hPa | 2.5V | 08:30:00 | 01:58:01 | 00:00:00 | |
| BIOWL1-15 | 2026-09-06 00:48:11 | 52.95447 | -0.04991 | 101° | 31km/h | 27892m | 5m/s | -47.8°C | 0.3% | 0hPa | 2.5V | 18:12:15 | 01:57:58 | 00:00:00 | |
| DM0DOS-11 | 2026-09-06 00:48:06 | 52.95460 | -0.05059 | 120° | 22km/h | 27850m | 5.3m/s | -48°C | 3% | 0hPa | 2.5V | 08:30:00 | 01:57:51 | 00:00:00 | |
| BIOWL1-15 | 2026-09-06 00:48:00 | 52.95472 | -0.05157 | 116° | 31km/h | 27793m | 6.6m/s | -48.3°C | 0.3% | 0hPa | 2.6V | 18:12:15 | 01:57:41 | 00:00:00 | |
| DM0DOS-11 | 2026-09-06 00:47:55 | 52.95472 | -0.05157 | 115° | 31km/h | 27793m | 6.6m/s | -48.3°C | 3.1% | 0hPa | 2.6V | 08:30:00 | 01:57:41 | 00:00:00 | |
| DB0UT-7 | 2026-09-06 00:47:49 | 52.95490 | -0.05202 | 115° | 24km/h | 27763m | 6.0m/s | -48.4°C | 3.1% | 0hPa | 2.5V | 00:00:00 | 01:57:36 | 08:30:00 | |
| DM0DOS-11 | 2026-09-06 00:47:48 | 52.95493 | -0.05247 | 79° | 26km/h | 27731m | 6.5m/s | -48.6°C | 3.2% | 0hPa | 2.6V | 08:30:00 | 01:57:31 | 00:00:00 | |
| BIOWL1-15 | 2026-09-06 00:47:44 | 52.95492 | -0.05247 | 80° | 26km/h | 27731m | 6.6m/s | -48.6°C | 0.4% | 0hPa | 2.6V | 18:12:15 | 01:57:31 | 00:00:00 | |
| DJ2DS-15 | 2026-09-06 00:47:44 | 52.95491 | -0.05259 | 81° | 29km/h | 27725m | 6.2m/s | -48.7°C | 0.9% | -1.0hPa | 2.5V | 00:00:00 | 00:00:00 | 00:00:00 | |
| DM0DOS-11 | 2026-09-06 00:47:36 | 52.95504 | -0.05348 | 115° | 26km/h | 27672m | 5.4m/s | -48.6°C | 3.1% | 0hPa | 2.5V | 08:30:00 | 01:57:21 | 00:00:00 | |
| BIOWL1-15 | 2026-09-06 00:47:34 | 52.95506 | -0.05357 | 108° | 22km/h | 27665m | 7m/s | -48.6°C | 0.3% | 0hPa | 2.5V | 18:12:15 | 01:57:20 | 00:00:00 | |
| DM0DOS-11 | 2026-09-06 00:47:26 | 52.95499 | -0.05439 | 96° | 15km/h | 27611m | 5.1m/s | -48.8°C | 3.2% | 0hPa | 2.5V | 08:30:00 | 01:57:11 | 00:00:00 | |
| BIOWL1-15 | 2026-09-06 00:47:22 | 52.95502 | -0.05453 | 111° | 22km/h | 27598m | 6.3m/s | -48.9°C | 0.4% | 0hPa | 2.6V | 18:12:15 | 01:57:09 | 00:00:00 | |
| DB0UT-7 | 2026-09-06 00:47:19 | 52.95507 | -0.05481 | 99° | 13km/h | 27581m | 6.7m/s | -49.0°C | 3.2% | 0hPa | 2.6V | 00:00:00 | 00:00:00 | 00:00:00 | |
| DM0DOS-11 | 2026-09-06 00:47:16 | 52.95501 | -0.05513 | 69° | 18km/h | 27551m | 6.1m/s | -49°C | 3.2% | 0hPa | 2.6V | 08:30:00 | 01:57:01 | 00:00:00 | |
| BIOWL1-15 | 2026-09-06 00:47:11 | 52.95499 | -0.05559 | 118° | 13km/h | 27498m | 6m/s | -49.4°C | 0.4% | 0hPa | 2.6V | 18:12:15 | 01:56:52 | 00:00:00 | |
| DJ2DS-15 | 2026-09-06 00:47:09 | 52.95496 | -0.05548 | 104° | 11km/h | 27509m | 6.1m/s | -49.3°C | 0.9% | -1.0hPa | 2.6V | 00:00:00 | 00:00:00 | 00:00:00 | |
| DM0DOS-11 | 2026-09-06 00:47:06 | 52.95500 | -0.05563 | 129° | 11km/h | 27491m | 7.1m/s | -49.5°C | 3.3% | 0hPa | 2.6V | 08:30:00 | 01:56:51 | 00:00:00 | |
| DJ2DS-15 | 2026-09-06 00:47:04 | 52.95500 | -0.05563 | 130° | 11km/h | 27491m | 7.0m/s | -49.4°C | 3.3% | 0hPa | 2.5V | 00:00:00 | 01:56:51 | 00:00:00 | |
| BIOWL9-15 | 2026-09-06 00:47:03 | 52.95510 | -0.05592 | 101° | 15km/h | 27454m | 6.1m/s | -49.5°C | 0.9% | -1.0hPa | 2.5V | 00:00:00 | 00:00:00 | 00:00:00 | |
| DM0DOS-11 | 2026-09-06 00:46:59 | 52.95509 | -0.05613 | 88° | 9km/h | 27421m | 5.1m/s | -49.5°C | 3.3% | 0hPa | 2.5V | 08:30:00 | 01:56:40 | 00:00:00 | |
| BIOWL1-15 | 2026-09-06 00:46:57 | 52.95510 | -0.05597 | 96° | 11km/h | 27447m | 7.3m/s | -49.5°C | 0.4% | 0hPa | 2.6V | 18:12:15 | 01:56:44 | 00:00:00 | |
| BIOWL1-15 | 2026-09-06 00:46:47 | 52.95512 | -0.05631 | 110° | 15km/h | 27384m | 5.4m/s | -49.6°C | 0.5% | 0hPa | 2.5V | 18:12:15 | 01:56:34 | 00:00:00 | |
| DM0DOS-11 | 2026-09-06 00:46:46 | 52.95513 | -0.05649 | 68° | 13km/h | 27367m | 6.8m/s | -49.6°C | 3.4% | 0hPa | 2.5V | 08:30:00 | 01:56:31 | 00:00:00 | |
| DJ2DS-15 | 2026-09-06 00:46:44 | 52.95512 | -0.05649 | 69° | 11km/h | 27367m | 6.7m/s | -49.6°C | 3.4% | 0hPa | 2.6V | 00:00:00 | 01:56:31 | 00:00:00 | |
| DM0DOS-11 | 2026-09-06 00:46:38 | 52.95501 | -0.05676 | 154° | 2km/h | 27307m | 6.6m/s | -49.7°C | 3.3% | 0hPa | 2.6V | 08:30:00 | 01:56:21 | 00:00:00 | |
| BIOWL1-15 | 2026-09-06 00:46:36 | 52.95501 | -0.05677 | 71° | 4km/h | 27301m | 6.6m/s | -49.8°C | 0.6% | 0hPa | 2.6V | 18:12:15 | 01:56:20 | 00:00:00 | |
| DJ2DS-15 | 2026-09-06 00:46:32 | 52.95498 | -0.05682 | 34° | 11km/h | 27290m | 5.3m/s | -49.9°C | 1.0% | -1.0hPa | 2.6V | 00:00:00 | 00:00:00 | 00:00:00 | |
| DM0DOS-11 | 2026-09-06 00:46:26 | 52.95475 | -0.05675 | 303° | 9km/h | 27247m | 5.5m/s | -49.8°C | 3.4% | 0hPa | 2.6V | 08:30:00 | 01:56:11 | 00:00:00 | |
| BIOWL1-15 | 2026-09-06 00:46:22 | 52.95465 | -0.05648 | 345° | 11km/h | 27198m | 5.9m/s | -49.5°C | 0.5% | 0hPa | 2.6V | 18:12:15 | 01:56:03 | 00:00:00 | |
| AU51GT2 | 2026-09-06 00:46:21 | 52.95472 | -0.05661 | 281° | 13km/h | 27228m | 5.6m/s | -49.7°C | -1.0% | -1.0hPa | 2.5V | 00:00:00 | 00:00:00 | 00:00:00 | |
| DM0DOS-11 | 2026-09-06 00:46:18 | 52.95459 | -0.05642 | 309° | 16km/h | 27185m | 5.7m/s | -49.5°C | 3.4% | 0hPa | 2.5V | 08:30:00 | 01:56:01 | 00:00:00 | |
| BIOWL1-15 | 2026-09-06 00:46:09 | 52.95440 | -0.05578 | 306° | 9km/h | 27121m | 7m/s | -49.3°C | 0.5% | 0hPa | 2.5V | 18:12:15 | 01:55:50 | 00:00:00 | |
| DM0DOS-11 | 2026-09-06 00:46:08 | 52.95441 | -0.05582 | 295° | 15km/h | 27128m | 5.4m/s | -49.3°C | 3.3% | 0hPa | 2.5V | 08:30:00 | 01:55:51 | 00:00:00 | |
| DJ2DS-15 | 2026-09-06 00:46:04 | 52.95441 | -0.05582 | 296° | 9km/h | 27128m | 5.3m/s | -49.3°C | 3.3% | 0hPa | 2.6V | 00:00:00 | 01:55:51 | 00:00:00 | |
| BIOWL9-15 | 2026-09-06 00:46:01 | 52.95433 | -0.05577 | 318° | 7km/h | 27091m | 5.5m/s | -49.2°C | 0.9% | -1.0hPa | 2.6V | 00:00:00 | 00:00:00 | 00:00:00 | |
| DM0DOS-11 | 2026-09-06 00:46:00 | 52.95430 | -0.05556 | 261° | 16km/h | 27061m | 6.5m/s | -49.1°C | 3.3% | 0hPa | 2.6V | 08:30:00 | 01:55:40 | 00:00:00 | |
| BIOWL1-15 | 2026-09-06 00:45:55 | 52.95439 | -0.05525 | 175° | 7km/h | 27024m | 5.6m/s | -49°C | 0.4% | 0hPa | 2.6V | 18:12:15 | 01:55:34 | 00:00:00 | |
| AU51GT2 | 2026-09-06 00:45:50 | 52.95435 | -0.05528 | 231° | 11km/h | 27036m | 6.9m/s | 0°C | -1.0% | -1.0hPa | 2.5V | 00:00:00 | 00:00:00 | 00:00:00 | |
| DM0DOS-11 | 2026-09-06 00:45:48 | 52.95443 | -0.05523 | 223° | 7km/h | 27006m | 5.3m/s | -48.9°C | 3.3% | 0hPa | 2.5V | 08:30:00 | 01:55:31 | 00:00:00 | |
| BIOWL1-15 | 2026-09-06 00:45:42 | 52.95449 | -0.05516 | 212° | 11km/h | 26988m | 6.5m/s | -48.8°C | 0.5% | 0hPa | 2.6V | 18:12:15 | 01:55:28 | 00:00:00 | |
| BIOWL1-15 | 2026-09-06 00:45:32 | 52.95475 | -0.05484 | 185° | 15km/h | 26933m | 6.2m/s | -48.5°C | 0.3% | 0hPa | 2.5V | 18:12:15 | 01:55:19 | 00:00:00 | |
| BIOWL9-15 | 2026-09-06 00:45:30 | 52.95481 | -0.05482 | 197° | 7km/h | 26921m | 5.4m/s | -48.4°C | 0.9% | -1.0hPa | 2.5V | 00:00:00 | 00:00:00 | 00:00:00 | |
| DM0DOS-11 | 2026-09-06 00:45:27 | 52.95490 | -0.05478 | 236° | 11km/h | 26884m | 6.4m/s | -48.4°C | 3.1% | 0hPa | 2.5V | 08:30:00 | 01:55:11 | 00:00:00 | |
| BIOWL1-15 | 2026-09-06 00:45:21 | 52.95507 | -0.05464 | 185° | 20km/h | 26855m | 5.3m/s | -48.3°C | 0.3% | 0hPa | 2.5V | 18:12:15 | 01:55:06 | 00:00:00 | |
| DB0UT-7 | 2026-09-06 00:45:21 | 52.95498 | -0.05467 | 201° | 16km/h | 26867m | 6.7m/s | -48.3°C | 3.1% | 0hPa | 2.6V | 00:00:00 | 01:55:08 | 00:00:00 | |
| AU51GT2 | 2026-09-06 00:45:19 | 52.95512 | -0.05463 | 186° | 18km/h | 26849m | 6.8m/s | 0°C | -1.0% | -1.0hPa | 2.6V | 00:00:00 | 00:00:00 | 00:00:00 | |
| DM0DOS-11 | 2026-09-06 00:45:17 | 52.95526 | -0.05466 | 130° | 11km/h | 26825m | 6.7m/s | -48.4°C | 3% | 0hPa | 2.6V | 08:30:00 | 01:55:01 | 00:00:00 | |
| BIOWL1-15 | 2026-09-06 00:45:09 | 52.95544 | -0.05486 | 159° | 11km/h | 26765m | 6.4m/s | -49°C | 0.4% | 0hPa | 2.6V | 18:12:15 | 01:54:51 | 00:00:00 | |
| DM0DOS-11 | 2026-09-06 00:45:07 | 52.95544 | -0.05486 | 158° | 11km/h | 26765m | 6.4m/s | -49°C | 3.2% | 0hPa | 2.6V | 08:30:00 | 01:54:51 | 00:00:00 | |
| BIOWL1-15 | 2026-09-06 00:45:00 | 52.95560 | -0.05514 | 129° | 16km/h | 26730m | 6.9m/s | -49.3°C | 0.4% | 0hPa | 2.5V | 18:12:15 | 01:54:45 | 00:00:00 | |
| BIOWL9-15 | 2026-09-06 00:44:59 | 52.95560 | -0.05514 | 128° | 16km/h | 26730m | 6.9m/s | -49.3°C | 0.9% | -1.0hPa | 2.5V | 00:00:00 | 00:00:00 | 00:00:00 | |
| DM0DOS-11 | 2026-09-06 00:44:56 | 52.95570 | -0.05531 | 129° | 15km/h | 26705m | 5.8m/s | -49.4°C | 3.2% | 0hPa | 2.5V | 08:30:00 | 01:54:41 | 00:00:00 | |
| BIOWL1-15 | 2026-09-06 00:44:47 | 52.95582 | -0.05549 | 153° | 13km/h | 26664m | 5.5m/s | -49.7°C | 0.4% | 0hPa | 2.5V | 18:12:15 | 01:54:34 | 00:00:00 | |
| DM0DOS-11 | 2026-09-06 00:44:46 | 52.95589 | -0.05555 | 137° | 5km/h | 26646m | 4.9m/s | -49.7°C | 3.3% | 0hPa | 2.6V | 08:30:00 | 01:54:31 | 00:00:00 | |
| BIOWL1-15 | 2026-09-06 00:44:41 | 52.95591 | -0.05582 | 38° | 7km/h | 26608m | 5.3m/s | -50.1°C | 0.5% | 0hPa | 2.6V | 18:12:15 | 01:54:24 | 00:00:00 | |
| DM0DOS-11 | 2026-09-06 00:44:36 | 52.95585 | -0.05590 | 47° | 11km/h | 26593m | 5.1m/s | -50.2°C | 3.5% | 0hPa | 2.5V | 08:30:00 | 01:54:21 | 00:00:00 | |
| BIOWL1-15 | 2026-09-06 00:44:27 | 52.95578 | -0.05603 | 50° | 9km/h | 26543m | 5.9m/s | -50.1°C | 0.5% | 0hPa | 2.6V | 18:12:15 | 01:54:12 | 00:00:00 | |
| DM0DOS-11 | 2026-09-06 00:44:26 | 52.95576 | -0.05606 | 53° | 9km/h | 26537m | 4.5m/s | -50°C | 3.4% | 0hPa | 2.5V | 08:30:00 | 01:54:11 | 00:00:00 | |
| DJ2DS-15 | 2026-09-06 00:44:23 | 52.95575 | -0.05608 | 33° | 7km/h | 26533m | 5.0m/s | -49.9°C | 3.4% | 0hPa | 2.5V | 00:00:00 | 01:54:10 | 00:00:00 | |
| DM0DOS-11 | 2026-09-06 00:44:16 | 52.95571 | -0.05587 | 12° | 4km/h | 26483m | 5.1m/s | -49.8°C | 3.3% | 0hPa | 2.5V | 08:30:00 | 01:54:01 | 00:00:00 | |
| BIOWL1-15 | 2026-09-06 00:44:15 | 52.95572 | -0.05587 | 292° | 4km/h | 26488m | 5.9m/s | -49.8°C | 0.5% | 0hPa | 2.5V | 18:12:15 | 01:54:02 | 00:00:00 | |
| BIOWL1-15 | 2026-09-06 00:44:07 | 52.95570 | -0.05594 | 248° | 5km/h | 26436m | 5.8m/s | -50°C | 0.5% | 0hPa | 2.5V | 18:12:15 | 01:53:52 | 00:00:00 | |
| DM0DOS-11 | 2026-09-06 00:44:06 | 52.95573 | -0.05589 | 208° | 13km/h | 26424m | 5.1m/s | -50°C | 3.4% | 0hPa | 2.5V | 08:30:00 | 01:53:50 | 00:00:00 | |
| DJ2DS-15 | 2026-09-06 00:44:03 | 52.95573 | -0.05589 | 209° | 11km/h | 26424m | 5.1m/s | -50.0°C | 3.4% | 0hPa | 2.5V | 00:00:00 | 01:53:50 | 00:00:00 | |
| BIOWL9-15 | 2026-09-06 00:43:57 | 52.95589 | -0.05572 | 178° | 9km/h | 26386m | 4.8m/s | 0°C | -1.0% | -1.0hPa | 2.5V | 00:00:00 | 00:00:00 | 00:00:00 | |
| DM0DOS-11 | 2026-09-06 00:43:55 | 52.95595 | -0.05573 | 165° | 4km/h | 26369m | 5.1m/s | -50°C | 3.4% | 0hPa | 2.5V | 08:30:00 | 01:53:40 | 00:00:00 | |
| BIOWL1-15 | 2026-09-06 00:43:55 | 52.95591 | -0.05572 | 170° | 9km/h | 26380m | 5.1m/s | -50°C | 0.5% | 0hPa | 2.5V | 18:12:15 | 01:53:42 | 00:00:00 | |
| DM0DOS-11 | 2026-09-06 00:43:45 | 52.95625 | -0.05558 | 208° | 22km/h | 26314m | 4m/s | -50.1°C | 3.3% | 0hPa | 2.5V | 08:30:00 | 01:53:30 | 00:00:00 | |
| BIOWL1-15 | 2026-09-06 00:43:44 | 52.95625 | -0.05558 | 208° | 22km/h | 26314m | 4m/s | -50.1°C | 0.5% | 0hPa | 2.5V | 18:12:15 | 01:53:30 | 00:00:00 | |
| DJ2DS-15 | 2026-09-06 00:43:43 | 52.95625 | -0.05558 | 209° | 15km/h | 26315m | 4.0m/s | -50.0°C | 3.3% | 0hPa | 2.6V | 00:00:00 | 01:53:30 | 00:00:00 | |
| DM0DOS-11 | 2026-09-06 00:43:35 | 52.95656 | -0.05562 | 165° | 9km/h | 26259m | 5.4m/s | -50.2°C | 3.4% | 0hPa | 2.6V | 08:30:00 | 01:53:20 | 00:00:00 | |
| BIOWL1-15 | 2026-09-06 00:43:32 | 52.95658 | -0.05563 | 193° | 7km/h | 26254m | 5.1m/s | -50.3°C | 0.5% | 0hPa | 2.6V | 18:12:15 | 01:53:19 | 00:00:00 | |
| DM0DOS-11 | 2026-09-06 00:43:25 | 52.95687 | -0.05559 | 150° | 26km/h | 26205m | 5.5m/s | -50.5°C | 3.4% | 0hPa | 2.5V | 08:30:00 | 01:53:10 | 00:00:00 | |
| BIOWL1-15 | 2026-09-06 00:43:22 | 52.95693 | -0.05564 | 148° | 26km/h | 26200m | 4.4m/s | -50.5°C | 0.5% | 0hPa | 2.5V | 18:12:15 | 01:53:09 | 00:00:00 | |
| DB0UT-7 | 2026-09-06 00:43:17 | 52.95710 | -0.05587 | 145° | 9km/h | 26172m | 5.8m/s | -50.8°C | 3.5% | 0hPa | 2.6V | 00:00:00 | 00:00:00 | 00:00:00 | |
| DM0DOS-11 | 2026-09-06 00:43:15 | 52.95720 | -0.05593 | 199° | 7km/h | 26149m | 5.2m/s | -50.8°C | 3.5% | 0hPa | 2.6V | 08:30:00 | 01:53:00 | 00:00:00 | |
| BIOWL1-15 | 2026-09-06 00:43:12 | 52.95722 | -0.05592 | 201° | 11km/h | 26144m | 5.1m/s | -50.8°C | 0.6% | 0hPa | 2.6V | 18:12:15 | 01:52:59 | 00:00:00 | |
| DM0DOS-11 | 2026-09-06 00:43:05 | 52.95744 | -0.05596 | 102° | 9km/h | 26095m | 6.7m/s | -50.7°C | 3.5% | 0hPa | 2.5V | 08:30:00 | 01:52:50 | 00:00:00 | |
| BIOWL1-15 | 2026-09-06 00:43:01 | 52.95750 | -0.05608 | 144° | 9km/h | 26072m | 6.4m/s | -50.8°C | 0.6% | 0hPa | 2.5V | 18:12:15 | 01:52:46 | 00:00:00 | |
| DM0DOS-11 | 2026-09-06 00:42:55 | 52.95762 | -0.05620 | 89° | 9km/h | 26039m | 6.6m/s | -50.9°C | 3.5% | 0hPa | 2.6V | 08:30:00 | 01:52:40 | 00:00:00 | |
| BIOWL1-15 | 2026-09-06 00:42:53 | 52.95759 | -0.05628 | 51° | 15km/h | 26027m | 4.7m/s | -50.9°C | 0.6% | 0hPa | 2.5V | 18:12:15 | 01:52:38 | 00:00:00 | |
| DM0DOS-11 | 2026-09-06 00:42:45 | 52.95752 | -0.05646 | 138° | 7km/h | 25981m | 5.9m/s | -51°C | 3.6% | 0hPa | 2.6V | 08:30:00 | 01:52:30 | 00:00:00 | |
| BIOWL1-15 | 2026-09-06 00:42:40 | 52.95755 | -0.05656 | 83° | 9km/h | 25963m | 6.2m/s | -50.9°C | 0.6% | 0hPa | 2.5V | 18:12:15 | 01:52:27 | 00:00:00 | |
| DM0DOS-11 | 2026-09-06 00:42:35 | 52.95749 | -0.05673 | 320° | 5km/h | 25923m | 6.5m/s | -50.7°C | 3.5% | 0hPa | 2.5V | 08:30:00 | 01:52:20 | 00:00:00 | |
| BIOWL1-15 | 2026-09-06 00:42:31 | 52.95747 | -0.05667 | 150° | 2km/h | 25900m | 5.1m/s | -50.6°C | 0.6% | 0hPa | 2.6V | 18:12:15 | 01:52:16 | 00:00:00 | |
| DM0DOS-11 | 2026-09-06 00:42:25 | 52.95739 | -0.05685 | 64° | 13km/h | 25865m | 5.3m/s | -50.7°C | 3.5% | 0hPa | 2.6V | 08:30:00 | 01:52:10 | 00:00:00 | |
| BIOWL1-15 | 2026-09-06 00:42:19 | 52.95731 | -0.05691 | 319° | 9km/h | 25842m | 4.9m/s | -50.6°C | 0.6% | 0hPa | 2.5V | 18:12:15 | 01:52:06 | 00:00:00 | |
| DM0DOS-11 | 2026-09-06 00:42:15 | 52.95726 | -0.05683 | 19° | 9km/h | 25808m | 5.6m/s | -50.5°C | 3.5% | 0hPa | 2.5V | 08:30:00 | 01:52:00 | 00:00:00 | |
| BIOWL1-15 | 2026-09-06 00:42:09 | 52.95710 | -0.05708 | 26° | 20km/h | 25773m | 5.1m/s | -50.7°C | 0.7% | 0hPa | 2.5V | 18:12:15 | 01:51:54 | 00:00:00 | |
| DM0DOS-11 | 2026-09-06 00:42:06 | 52.95697 | -0.05715 | 357° | 7km/h | 25750m | 5.1m/s | -50.7°C | 3.6% | 0hPa | 2.5V | 08:30:00 | 01:51:50 | 00:00:00 | |
| BIOWL1-15 | 2026-09-06 00:41:57 | 52.95682 | -0.05709 | 31° | 11km/h | 25715m | 5.1m/s | -50.5°C | 0.7% | 0hPa | 2.5V | 18:12:15 | 01:51:44 | 00:00:00 | |
| DM0DOS-11 | 2026-09-06 00:41:56 | 52.95667 | -0.05719 | 3° | 18km/h | 25693m | 5m/s | -50.4°C | 3.5% | 0hPa | 2.6V | 08:30:00 | 01:51:40 | 00:00:00 | |
| BIOWL1-15 | 2026-09-06 00:41:48 | 52.95645 | -0.05712 | 329° | 13km/h | 25653m | 5.1m/s | -50.2°C | 0.6% | 0hPa | 2.5V | 18:12:15 | 01:51:33 | 00:00:00 | |
| DM0DOS-11 | 2026-09-06 00:41:46 | 52.95638 | -0.05706 | 339° | 7km/h | 25635m | 4.9m/s | -50.1°C | 3.5% | 0hPa | 2.6V | 08:30:00 | 01:51:30 | 00:00:00 | |
| DB0UT-7 | 2026-09-06 00:41:42 | 52.95636 | -0.05705 | 344° | 11km/h | 25630m | 5.7m/s | -50.1°C | 3.5% | 0hPa | 2.5V | 00:00:00 | 01:51:29 | 00:00:00 | |
| DJ2DS-15 | 2026-09-06 00:41:41 | 52.95633 | -0.05703 | 345° | 9km/h | 25624m | 6.9m/s | -50.0°C | 3.5% | 0hPa | 2.5V | 00:00:00 | 01:51:28 | 00:00:00 | |
| DM0DOS-11 | 2026-09-06 00:41:36 | 52.95613 | -0.05689 | 313° | 5km/h | 25578m | 6.2m/s | -49.9°C | 3.4% | 0hPa | 2.5V | 08:30:00 | 01:51:20 | 00:00:00 | |
| BIOWL1-15 | 2026-09-06 00:41:35 | 52.95615 | -0.05693 | 303° | 4km/h | 25589m | 5.2m/s | -49.9°C | 0.5% | 0hPa | 2.5V | 18:12:15 | 01:51:22 | 00:00:00 | |
| DM0DOS-11 | 2026-09-06 00:41:25 | 52.95591 | -0.05684 | 352° | 9km/h | 25519m | 6m/s | -49.6°C | 3.4% | 0hPa | 2.5V | 08:30:00 | 01:51:10 | 00:00:00 | |
| BIOWL1-15 | 2026-09-06 00:41:24 | 52.95591 | -0.05684 | 353° | 9km/h | 25519m | 6m/s | -49.6°C | 0.6% | 0hPa | 2.5V | 18:12:15 | 01:51:10 | 00:00:00 | |
| DJ2DS-15 | 2026-09-06 00:41:21 | 52.95587 | -0.05682 | 323° | 11km/h | 25509m | 5.0m/s | -49.5°C | 3.4% | 0hPa | 2.6V | 00:00:00 | 01:51:08 | 00:00:00 | |
| DM0DOS-11 | 2026-09-06 00:41:15 | 52.95573 | -0.05653 | 327° | 11km/h | 25462m | 6.6m/s | -49.4°C | 3.4% | 0hPa | 2.5V | 08:30:00 | 01:51:00 | 00:00:00 | |
| BIOWL1-15 | 2026-09-06 00:41:13 | 52.95571 | -0.05650 | 319° | 11km/h | 25456m | 6.1m/s | -49.3°C | 0.5% | 0hPa | 2.5V | 18:12:15 | 01:50:59 | 00:00:00 | |
| DB0UT-7 | 2026-09-06 00:41:12 | 52.95571 | -0.05650 | 320° | 13km/h | 25456m | 6.1m/s | -49.3°C | 3.4% | 0hPa | 2.5V | 00:00:00 | 00:00:00 | 08:30:00 | |
| DM0DOS-11 | 2026-09-06 00:41:04 | 52.95565 | -0.05610 | 282° | 20km/h | 25402m | 6.7m/s | -49.2°C | 3.4% | 0hPa | 2.6V | 08:30:00 | 01:50:50 | 00:00:00 | |
| BIOWL1-15 | 2026-09-06 00:41:02 | 52.95565 | -0.05590 | 258° | 13km/h | 25385m | 6.8m/s | -49.1°C | 0.5% | 0hPa | 2.5V | 18:12:15 | 01:50:47 | 00:00:00 | |
| DJ2DS-15 | 2026-09-06 00:41:01 | 52.95564 | -0.05596 | 272° | 16km/h | 25391m | 5.5m/s | -49.1°C | 3.3% | 0hPa | 2.6V | 00:00:00 | 01:50:48 | 00:00:00 | |
| DM0DOS-11 | 2026-09-06 00:40:57 | 52.95579 | -0.05579 | 246° | 18km/h | 25344m | 6.7m/s | -48.8°C | 3.2% | 0hPa | 2.6V | 08:30:00 | 01:50:40 | 00:00:00 | |
| BIOWL1-15 | 2026-09-06 00:40:49 | 52.95590 | -0.05534 | 243° | 29km/h | 25320m | 5.2m/s | -48.7°C | 0.4% | 0hPa | 2.5V | 18:12:15 | 01:50:36 | 00:00:00 | |
| BIOWL1-15 | 2026-09-06 00:40:39 | 52.95619 | -0.05490 | 219° | 26km/h | 25262m | 6m/s | -48.4°C | 0.3% | 0hPa | 2.5V | 18:12:15 | 01:50:26 | 00:00:00 | |
| DM0DOS-11 | 2026-09-06 00:40:34 | 52.95648 | -0.05460 | 210° | 22km/h | 25230m | 5.6m/s | -48.7°C | 3.1% | 0hPa | 2.5V | 08:30:00 | 01:50:20 | 00:00:00 | |
| BIOWL1-15 | 2026-09-06 00:40:28 | 52.95666 | -0.05436 | 194° | 18km/h | 25203m | 6.4m/s | -49°C | 0.3% | 0hPa | 2.5V | 18:12:15 | 01:50:15 | 00:00:00 | |
| DM0DOS-11 | 2026-09-06 00:40:26 | 52.95698 | -0.05430 | 190° | 31km/h | 25175m | 5m/s | -49.2°C | 3.2% | 0hPa | 2.5V | 08:30:00 | 01:50:10 | 00:00:00 | |
| BIOWL1-15 | 2026-09-06 00:40:15 | 52.95770 | -0.05405 | 174° | 24km/h | 25122m | 4.3m/s | -49.8°C | 0.4% | 0hPa | 2.5V | 18:12:15 | 01:50:00 | 00:00:00 | |
| DM0DOS-11 | 2026-09-06 00:40:14 | 52.95771 | -0.05405 | 173° | 24km/h | 25122m | 4.3m/s | -49.8°C | 3.2% | 0hPa | 2.5V | 08:30:00 | 01:50:00 | 00:00:00 | |
| DB0UT-7 | 2026-09-06 00:40:11 | 52.95783 | -0.05406 | 179° | 33km/h | 25112m | 6.2m/s | -49.8°C | 3.2% | 0hPa | 2.6V | 00:00:00 | 00:00:00 | 00:00:00 | |
| DM0DOS-11 | 2026-09-06 00:40:07 | 52.95852 | -0.05424 | 163° | 37km/h | 25069m | 4.3m/s | -50.1°C | 3.3% | 0hPa | 2.6V | 08:30:00 | 01:49:50 | 00:00:00 | |
| BIOWL1-15 | 2026-09-06 00:40:04 | 52.95860 | -0.05429 | 159° | 38km/h | 25064m | 6.1m/s | -50.2°C | 0.4% | 0hPa | 2.5V | 18:12:15 | 01:49:49 | 00:00:00 | |
| DJ2DS-15 | 2026-09-06 00:40:01 | 52.95869 | -0.05435 | 156° | 31km/h | 25059m | 5.0m/s | -50.2°C | 3.3% | 0hPa | 2.6V | 00:00:00 | 01:49:48 | 00:00:00 | |
| DM0DOS-11 | 2026-09-06 00:39:54 | 52.95946 | -0.05463 | 162° | 40km/h | 25018m | 4.3m/s | -50.9°C | 3.4% | 0hPa | 2.6V | 08:30:00 | 01:49:40 | 00:00:00 | |
| BIOWL1-15 | 2026-09-06 00:39:51 | 52.95963 | -0.05472 | 165° | 31km/h | 25008m | 5.3m/s | -51.1°C | 0.6% | 0hPa | 2.5V | 18:12:15 | 01:49:38 | 00:00:00 | |
| DM0DOS-11 | 2026-09-06 00:39:44 | 52.96011 | -0.05490 | 160° | 24km/h | 24964m | 3.6m/s | -51.6°C | 3.7% | 0hPa | 2.5V | 08:30:00 | 01:49:30 | 00:00:00 | |
| BIOWL1-15 | 2026-09-06 00:39:41 | 52.96023 | -0.05499 | 149° | 29km/h | 24955m | 6.3m/s | -51.6°C | 0.7% | 0hPa | 2.6V | 18:12:15 | 01:49:28 | 00:00:00 | |
| DJ2DS-15 | 2026-09-06 00:39:41 | 52.96023 | -0.05499 | 150° | 22km/h | 24955m | 6.3m/s | -51.5°C | 3.7% | 0hPa | 2.5V | 00:00:00 | 01:49:28 | 00:00:00 | |
| DM0DOS-11 | 2026-09-06 00:39:34 | 52.96067 | -0.05547 | 143° | 16km/h | 24911m | 5m/s | -51.4°C | 3.7% | 0hPa | 2.5V | 08:30:00 | 01:49:20 | 00:00:00 | |
| BIOWL1-15 | 2026-09-06 00:39:33 | 52.96073 | -0.05552 | 163° | 13km/h | 24900m | 5.2m/s | -51.4°C | 0.7% | 0hPa | 2.6V | 18:12:15 | 01:49:18 | 00:00:00 | |
| DM0DOS-11 | 2026-09-06 00:39:24 | 52.96103 | -0.05591 | 141° | 20km/h | 24858m | 4m/s | -51.1°C | 3.6% | 0hPa | 2.5V | 08:30:00 | 01:49:10 | 00:00:00 | |
| BIOWL1-15 | 2026-09-06 00:39:20 | 52.96112 | -0.05609 | 119° | 18km/h | 24842m | 4.8m/s | -51.1°C | 0.7% | 0hPa | 2.6V | 18:12:15 | 01:49:07 | 00:00:00 | |
| DM0DOS-11 | 2026-09-06 00:39:14 | 52.96132 | -0.05636 | 130° | 20km/h | 24804m | 4.9m/s | -50.8°C | 3.6% | 0hPa | 2.6V | 08:30:00 | 01:49:00 | 00:00:00 | |
| BIOWL1-15 | 2026-09-06 00:39:10 | 52.96151 | -0.05681 | 100° | 11km/h | 24760m | 6.7m/s | 0°C | 0% | 0hPa | 2.5V | 18:12:15 | 01:48:52 | 00:00:00 | |
| DM0DOS-11 | 2026-09-06 00:39:07 | 52.96152 | -0.05687 | 121° | 5km/h | 24749m | 4.1m/s | -50.6°C | 3.5% | 0hPa | 2.6V | 08:30:00 | 01:48:50 | 00:00:00 | |
| BIOWL1-15 | 2026-09-06 00:38:55 | 52.96167 | -0.05726 | 118° | 26km/h | 24706m | 6.1m/s | 0°C | 0% | 0hPa | 2.5V | 18:12:15 | 01:48:42 | 00:00:00 | |
| DM0DOS-11 | 2026-09-06 00:38:54 | 52.96173 | -0.05746 | 110° | 26km/h | 24696m | 4.8m/s | -50.2°C | 3.5% | 0hPa | 2.5V | 08:30:00 | 01:48:40 | 00:00:00 | |
| DM0DOS-11 | 2026-09-06 00:38:49 | 52.96178 | -0.05796 | 102° | 16km/h | 24642m | 6.3m/s | -50.2°C | 3.5% | 0hPa | 2.5V | 08:30:00 | 01:48:30 | 00:00:00 | |
| BIOWL1-15 | 2026-09-06 00:38:45 | 52.96177 | -0.05786 | 102° | 9km/h | 24652m | 4.6m/s | 0°C | 0% | 0hPa | 2.5V | 18:12:15 | 01:48:32 | 00:00:00 | |
| DJ2DS-15 | 2026-09-06 00:38:41 | 52.96180 | -0.05814 | 103° | 18km/h | 24631m | 5.2m/s | -50.2°C | 3.5% | 0hPa | 2.5V | 00:00:00 | 01:48:28 | 00:00:00 | |
| DM0DOS-11 | 2026-09-06 00:38:38 | 52.96188 | -0.05878 | 83° | 11km/h | 24586m | 6.6m/s | -50°C | 3.4% | 0hPa | 2.5V | 08:30:00 | 01:48:20 | 00:00:00 | |
| BIOWL1-15 | 2026-09-06 00:38:34 | 52.96188 | -0.05873 | 82° | 13km/h | 24592m | 5.6m/s | 0°C | 0% | 0hPa | 2.5V | 18:12:15 | 01:48:21 | 00:00:00 | |
| DB0UT-7 | 2026-09-06 00:38:31 | 52.96188 | -0.05886 | 100° | 16km/h | 24576m | 3.9m/s | -49.9°C | 3.4% | 0hPa | 2.5V | 00:00:00 | 01:48:18 | 00:00:00 | |
| DM0DOS-11 | 2026-09-06 00:38:28 | 52.96185 | -0.05951 | 62° | 11km/h | 24534m | 4.6m/s | -49.8°C | 3.4% | 0hPa | 2.5V | 08:30:00 | 01:48:10 | 00:00:00 | |
| BIOWL1-15 | 2026-09-06 00:38:23 | 52.96185 | -0.05951 | 62° | 11km/h | 24534m | 4.6m/s | 0°C | 0% | 0hPa | 2.5V | 18:12:15 | 01:48:10 | 00:00:00 | |
| DJ2DS-15 | 2026-09-06 00:38:21 | 52.96181 | -0.05959 | 54° | 15km/h | 24522m | 5.8m/s | -49.7°C | 3.4% | 0hPa | 2.5V | 00:00:00 | 01:48:08 | 00:00:00 | |
| DM0DOS-11 | 2026-09-06 00:38:18 | 52.96185 | -0.06002 | 108° | 20km/h | 24476m | 5m/s | -49.6°C | 3.4% | 0hPa | 2.6V | 08:30:00 | 01:48:00 | 00:00:00 | |
| DB0UT-7 | 2026-09-06 00:38:01 | 52.96190 | -0.06075 | 119° | 20km/h | 24408m | 6.3m/s | -49.5°C | 3.3% | 0hPa | 2.5V | 00:00:00 | 00:00:00 | 00:00:00 | |
| DM0DOS-11 | 2026-09-06 00:37:58 | 52.96196 | -0.06101 | 105° | 7km/h | 24379m | 4.3m/s | -49.5°C | 3.3% | 0hPa | 2.6V | 08:30:00 | 01:47:43 | 00:00:00 | |
| DM0DOS-11 | 2026-09-06 00:37:48 | 52.96231 | -0.06163 | 121° | 24km/h | 24322m | 5.4m/s | -49.8°C | 3.4% | 0hPa | 2.6V | 08:30:00 | 01:47:33 | 00:00:00 | |
| DJ2DS-15 | 2026-09-06 00:37:41 | 52.96237 | -0.06196 | 104° | 26km/h | 24293m | 6.3m/s | -49.9°C | 3.5% | 0hPa | 2.5V | 00:00:00 | 01:47:28 | 00:00:00 | |
| DM0DOS-11 | 2026-09-06 00:37:38 | 52.96254 | -0.06238 | 135° | 27km/h | 24264m | 4.4m/s | -50°C | 3.5% | 0hPa | 2.5V | 08:30:00 | 01:47:23 | 00:00:00 | |
| DB0UT-7 | 2026-09-06 00:37:31 | 52.96271 | -0.06292 | 107° | 24km/h | 24235m | 6.4m/s | -49.8°C | 3.5% | 0hPa | 2.6V | 00:00:00 | 01:47:18 | 00:00:00 | |
| DM0DOS-11 | 2026-09-06 00:37:28 | 52.96281 | -0.06342 | 111° | 29km/h | 24204m | 5.1m/s | -49.8°C | 3.4% | 0hPa | 2.6V | 08:30:00 | 01:47:13 | 00:00:00 | |
| DJ2DS-15 | 2026-09-06 00:37:21 | 52.96299 | -0.06390 | 114° | 22km/h | 24173m | 6.0m/s | -49.5°C | 3.4% | 0hPa | 2.6V | 00:00:00 | 01:47:08 | 08:30:00 | |
| DM0DOS-11 | 2026-09-06 00:37:18 | 52.96304 | -0.06433 | 88° | 22km/h | 24144m | 6.7m/s | -49.4°C | 3.3% | 0hPa | 2.6V | 08:30:00 | 01:47:03 | 00:00:00 | |
| DJ2DS-15 | 2026-09-06 00:37:01 | 52.96314 | -0.06568 | 94° | 22km/h | 24057m | 4.7m/s | -49.2°C | 3.2% | 0hPa | 2.5V | 00:00:00 | 01:46:48 | 00:00:00 | |
| DM0DOS-11 | 2026-09-06 00:36:58 | 52.96326 | -0.06640 | 114° | 22km/h | 24015m | 5.5m/s | -49.7°C | 3.3% | 0hPa | 2.5V | 08:30:00 | 01:46:41 | 00:00:00 | |
| DM0DOS-11 | 2026-09-06 00:36:48 | 52.96338 | -0.06713 | 96° | 22km/h | 23955m | 4.9m/s | -50°C | 3.4% | 0hPa | 2.6V | 08:30:00 | 01:46:31 | 00:00:00 | |
| DJ2DS-15 | 2026-09-06 00:36:41 | 52.96342 | -0.06736 | 127° | 13km/h | 23938m | 6.1m/s | -50.0°C | 3.4% | 0hPa | 2.6V | 00:00:00 | 01:46:28 | 00:00:00 | |
| DM0DOS-11 | 2026-09-06 00:36:38 | 52.96357 | -0.06778 | 125° | 15km/h | 23895m | 5.5m/s | -50.1°C | 3.3% | 0hPa | 2.6V | 08:30:00 | 01:46:21 | 00:00:00 | |
| DB0UT-7 | 2026-09-06 00:36:31 | 52.96360 | -0.06793 | 93° | 22km/h | 23878m | 4.4m/s | -50.1°C | 3.3% | 0hPa | 2.5V | 00:00:00 | 01:46:18 | 08:30:00 | |
| DM0DOS-11 | 2026-09-06 00:36:28 | 52.96367 | -0.06812 | 108° | 9km/h | 23839m | 4.7m/s | -50.3°C | 3.3% | 0hPa | 2.5V | 08:30:00 | 01:46:11 | 00:00:00 | |
| DJ2DS-15 | 2026-09-06 00:36:21 | 52.96370 | -0.06819 | 167° | 9km/h | 23822m | 5.8m/s | -50.4°C | 3.4% | 0hPa | 2.5V | 00:00:00 | 01:46:08 | 00:00:00 | |
| DM0DOS-11 | 2026-09-06 00:36:18 | 52.96388 | -0.06822 | 186° | 15km/h | 23782m | 5.2m/s | -50.8°C | 3.5% | 0hPa | 2.5V | 08:30:00 | 01:46:01 | 00:00:00 | |
| DM0DOS-11 | 2026-09-06 00:36:08 | 52.96405 | -0.06833 | 132° | 11km/h | 23727m | 5.1m/s | -51.3°C | 3.6% | 0hPa | 2.6V | 08:30:00 | 01:45:51 | 00:00:00 | |
| DJ2DS-15 | 2026-09-06 00:36:01 | 52.96414 | -0.06839 | 172° | 22km/h | 23710m | 5.0m/s | -51.2°C | 3.6% | 0hPa | 2.5V | 00:00:00 | 01:45:48 | 00:00:00 | |
| DM0DOS-11 | 2026-09-06 00:35:58 | 52.96448 | -0.06847 | 153° | 22km/h | 23670m | 5.4m/s | -51.2°C | 3.6% | 0hPa | 2.5V | 08:30:00 | 01:45:41 | 00:00:00 | |
| DM0DOS-11 | 2026-09-06 00:35:48 | 52.96491 | -0.06916 | 144° | 24km/h | 23617m | 5.9m/s | -50.9°C | 3.4% | 0hPa | 2.5V | 08:30:00 | 01:45:31 | 00:00:00 | |
| DJ2DS-15 | 2026-09-06 00:35:41 | 52.96507 | -0.06932 | 151° | 31km/h | 23600m | 5.2m/s | -50.9°C | 3.5% | 0hPa | 2.5V | 00:00:00 | 01:45:28 | 00:00:00 | |
| DM0DOS-11 | 2026-09-06 00:35:38 | 52.96547 | -0.06976 | 127° | 31km/h | 23562m | 5.7m/s | -50.8°C | 3.4% | 0hPa | 2.5V | 08:30:00 | 01:45:21 | 00:00:00 | |
| DM0DOS-11 | 2026-09-06 00:35:28 | 52.96600 | -0.07074 | 137° | 33km/h | 23510m | 5.8m/s | -51.6°C | 3.5% | 0hPa | 2.6V | 08:30:00 | 01:45:11 | 00:00:00 | |
| DJ2DS-15 | 2026-09-06 00:35:21 | 52.96616 | -0.07101 | 133° | 27km/h | 23494m | 5.2m/s | -51.6°C | 3.5% | 0hPa | 2.5V | 00:00:00 | 01:45:08 | 00:00:00 | |
| DM0DOS-11 | 2026-09-06 00:35:18 | 52.96642 | -0.07176 | 129° | 27km/h | 23459m | 4.4m/s | -51.7°C | 3.5% | 0hPa | 2.6V | 08:30:00 | 01:45:01 | 00:00:00 | |
| DM0DOS-11 | 2026-09-06 00:35:08 | 52.96677 | -0.07268 | 112° | 24km/h | 23409m | 4m/s | -52.5°C | 3.7% | 0hPa | 2.5V | 08:30:00 | 01:44:51 | 00:00:00 | |
| DJ2DS-15 | 2026-09-06 00:35:01 | 52.96688 | -0.07291 | 146° | 24km/h | 23393m | 4.7m/s | -52.6°C | 3.7% | 0hPa | 2.6V | 00:00:00 | 01:44:48 | 00:00:00 | |
| DM0DOS-11 | 2026-09-06 00:34:58 | 52.96733 | -0.07344 | 127° | 20km/h | 23357m | 5.8m/s | -52.7°C | 3.7% | 0hPa | 2.6V | 08:30:00 | 01:44:41 | 00:00:00 | |
| DM0DOS-11 | 2026-09-06 00:34:48 | 52.96758 | -0.07409 | 149° | 24km/h | 23303m | 5.3m/s | -53.1°C | 3.8% | 0hPa | 2.5V | 08:30:00 | 01:44:31 | 00:00:00 | |
| DJ2DS-15 | 2026-09-06 00:34:41 | 52.96772 | -0.07425 | 138° | 20km/h | 23289m | 5.6m/s | -53.3°C | 3.9% | 0hPa | 2.5V | 00:00:00 | 01:44:28 | 00:00:00 | |
| DM0DOS-11 | 2026-09-06 00:34:38 | 52.96789 | -0.07466 | 123° | 22km/h | 23254m | 4.8m/s | -53.4°C | 3.9% | 0hPa | 2.5V | 08:30:00 | 01:44:21 | 00:00:00 | |
| DB0UT-7 | 2026-09-06 00:34:31 | 52.96802 | -0.07489 | 137° | 16km/h | 23238m | 4.5m/s | -53.3°C | 4.0% | 0hPa | 2.5V | 00:00:00 | 01:44:18 | 00:00:00 | |
| DM0DOS-11 | 2026-09-06 00:34:28 | 52.96829 | -0.07535 | 133° | 9km/h | 23202m | 5.3m/s | -53.2°C | 3.9% | 0hPa | 2.5V | 08:30:00 | 01:44:11 | 00:00:00 | |
| BIOWL1-15 | 2026-09-06 00:34:25 | 52.96827 | -0.07533 | 148° | 11km/h | 23207m | 4.8m/s | -53.2°C | 0.9% | 0hPa | 2.5V | 18:12:15 | 01:44:12 | 00:00:00 | |
| DJ2DS-15 | 2026-09-06 00:34:21 | 52.96833 | -0.07549 | 114° | 16km/h | 23187m | 4.9m/s | -53.2°C | 4.0% | 0hPa | 2.6V | 00:00:00 | 01:44:08 | 08:30:00 | |
| DM0DOS-11 | 2026-09-06 00:34:18 | 52.96857 | -0.07595 | 130° | 20km/h | 23151m | 3.9m/s | -53.1°C | 3.9% | 0hPa | 2.6V | 08:30:00 | 01:44:01 | 00:00:00 | |
| BIOWL1-15 | 2026-09-06 00:34:16 | 52.96857 | -0.07595 | 130° | 20km/h | 23151m | 3.9m/s | -53.1°C | 0.9% | 0hPa | 2.6V | 18:12:15 | 01:44:01 | 00:00:00 | |
| DM0DOS-11 | 2026-09-06 00:34:08 | 52.96873 | -0.07607 | 149° | 18km/h | 23100m | 5m/s | -52.8°C | 3.8% | 0hPa | 2.6V | 08:30:00 | 01:43:51 | 00:00:00 | |
| BIOWL1-15 | 2026-09-06 00:34:04 | 52.96874 | -0.07607 | 150° | 18km/h | 23100m | 5m/s | -52.8°C | 0.8% | 0hPa | 2.6V | 18:12:15 | 01:43:51 | 00:00:00 | |
| DB0UT-7 | 2026-09-06 00:34:01 | 52.96886 | -0.07625 | 134° | 16km/h | 23084m | 4.9m/s | -52.6°C | 3.8% | 0hPa | 2.5V | 00:00:00 | 00:00:00 | 00:00:00 | |
| DM0DOS-11 | 2026-09-06 00:33:58 | 52.96908 | -0.07653 | 109° | 5km/h | 23046m | 4.9m/s | -52.6°C | 3.7% | 0hPa | 2.5V | 08:30:00 | 01:43:41 | 00:00:00 | |
| BIOWL1-15 | 2026-09-06 00:33:56 | 52.96908 | -0.07653 | 109° | 5km/h | 23046m | 4.9m/s | -52.6°C | 0.7% | 0hPa | 2.5V | 18:12:15 | 01:43:41 | 00:00:00 | |
| BIOWL1-15 | 2026-09-06 00:33:43 | 52.96941 | -0.07694 | 142° | 11km/h | 22981m | 5.7m/s | -52.7°C | 0.8% | 0hPa | 2.5V | 18:12:15 | 01:43:29 | 00:00:00 | |
| DJ2DS-15 | 2026-09-06 00:33:41 | 52.96943 | -0.07697 | 149° | 22km/h | 22976m | 5.3m/s | -52.6°C | 3.7% | 0hPa | 2.6V | 00:00:00 | 01:43:28 | 00:00:00 | |
| DM0DOS-11 | 2026-09-06 00:33:37 | 52.96968 | -0.07739 | 147° | 22km/h | 22937m | 4.5m/s | -53.2°C | 3.8% | 0hPa | 2.6V | 08:30:00 | 01:43:21 | 00:00:00 | |
| BIOWL1-15 | 2026-09-06 00:33:31 | 52.96986 | -0.07755 | 153° | 16km/h | 22911m | 6.3m/s | -53.5°C | 0.9% | 0hPa | 2.5V | 18:12:15 | 01:43:16 | 00:00:00 | |
| DB0UT-7 | 2026-09-06 00:33:31 | 52.96980 | -0.07749 | 151° | 22km/h | 22922m | 5.4m/s | -53.3°C | 3.9% | 0hPa | 2.5V | 00:00:00 | 01:43:18 | 00:00:00 | |
| DM0DOS-11 | 2026-09-06 00:33:27 | 52.97002 | -0.07794 | 111° | 31km/h | 22884m | 5.2m/s | -53.7°C | 4% | 0hPa | 2.5V | 08:30:00 | 01:43:11 | 00:00:00 | |
| BIOWL1-15 | 2026-09-06 00:33:18 | 52.97022 | -0.07863 | 112° | 24km/h | 22851m | 4.9m/s | -53.7°C | 0.9% | 0hPa | 2.5V | 18:12:15 | 01:43:05 | 00:00:00 | |
| DM0DOS-11 | 2026-09-06 00:33:17 | 52.97029 | -0.07894 | 93° | 18km/h | 22829m | 6.2m/s | -53.6°C | 4% | 0hPa | 2.5V | 08:30:00 | 01:43:01 | 00:00:00 | |
| DM0DOS-11 | 2026-09-06 00:33:07 | 52.97039 | -0.07983 | 103° | 20km/h | 22774m | 4.8m/s | -53.2°C | 3.9% | 0hPa | 2.5V | 08:30:00 | 01:42:51 | 00:00:00 | |
| BIOWL1-15 | 2026-09-06 00:33:02 | 52.97040 | -0.08009 | 97° | 24km/h | 22759m | 5.4m/s | -53.4°C | 0.9% | 0hPa | 2.5V | 18:12:15 | 01:42:48 | 00:00:00 | |
| DJ2DS-15 | 2026-09-06 00:33:01 | 52.97040 | -0.08009 | 98° | 24km/h | 22759m | 5.4m/s | -53.3°C | 3.9% | 0hPa | 2.6V | 00:00:00 | 01:42:48 | 00:00:00 | |
| DM0DOS-11 | 2026-09-06 00:32:57 | 52.97044 | -0.08096 | 94° | 27km/h | 22719m | 5.5m/s | -53.3°C | 4% | 0hPa | 2.6V | 08:30:00 | 01:42:41 | 00:00:00 | |
| BIOWL1-15 | 2026-09-06 00:32:51 | 52.97044 | -0.08125 | 77° | 20km/h | 22703m | 5.8m/s | -53.2°C | 0.8% | 0hPa | 2.5V | 18:12:15 | 01:42:38 | 00:00:00 | |
| DM0DOS-11 | 2026-09-06 00:32:47 | 52.97040 | -0.08178 | 95° | 18km/h | 22663m | 5.7m/s | -53°C | 3.8% | 0hPa | 2.5V | 08:30:00 | 01:42:31 | 00:00:00 | |
| DJ2DS-15 | 2026-09-06 00:32:41 | 52.97045 | -0.08198 | 126° | 13km/h | 22647m | 5.1m/s | -53.2°C | 3.9% | 0hPa | 2.5V | 00:00:00 | 01:42:28 | 00:00:00 | |
| DM0DOS-11 | 2026-09-06 00:32:37 | 52.97051 | -0.08237 | 72° | 18km/h | 22609m | 6.1m/s | -53.1°C | 3.9% | 0hPa | 2.5V | 08:30:00 | 01:42:21 | 00:00:00 | |
| DB0UT-7 | 2026-09-06 00:32:31 | 52.97046 | -0.08260 | 80° | 11km/h | 22594m | 5.9m/s | -53.0°C | 3.9% | 0hPa | 2.6V | 00:00:00 | 01:42:18 | 00:00:00 | |
| DM0DOS-11 | 2026-09-06 00:32:27 | 52.97047 | -0.08287 | 101° | 9km/h | 22556m | 6.1m/s | -53°C | 3.8% | 0hPa | 2.5V | 08:30:00 | 01:42:11 | 00:00:00 | |
| DJ2DS-15 | 2026-09-06 00:32:18 | 52.97048 | -0.08316 | 111° | 20km/h | 22523m | 4.4m/s | -52.8°C | 3.8% | 0hPa | 2.5V | 00:00:00 | 01:42:05 | 00:00:00 | |
| DM0DOS-11 | 2026-09-06 00:32:17 | 52.97052 | -0.08330 | 119° | 5km/h | 22503m | 4.3m/s | -52.8°C | 3.8% | 0hPa | 2.6V | 08:30:00 | 01:42:01 | 00:00:00 | |
| DM0DOS-11 | 2026-09-06 00:32:07 | 52.97079 | -0.08348 | 163° | 16km/h | 22451m | 6.1m/s | -52.6°C | 3.7% | 0hPa | 2.6V | 08:30:00 | 01:41:51 | 00:00:00 | |
| DB0UT-7 | 2026-09-06 00:32:01 | 52.97087 | -0.08354 | 148° | 20km/h | 22436m | 5.8m/s | -52.6°C | 3.6% | 0hPa | 2.5V | 00:00:00 | 00:00:00 | 00:00:00 | |
| DM0DOS-11 | 2026-09-06 00:31:57 | 52.97106 | -0.08362 | 165° | 22km/h | 22396m | 4.9m/s | -53.6°C | 3.9% | 0hPa | 2.5V | 08:30:00 | 01:41:41 | 00:00:00 | |
| DM0DOS-11 | 2026-09-06 00:31:47 | 52.97164 | -0.08382 | 194° | 18km/h | 22344m | 4.7m/s | -53.6°C | 4% | 0hPa | 2.5V | 08:30:00 | 01:41:31 | 00:00:00 | |
| DJ2DS-15 | 2026-09-06 00:31:47 | 52.97155 | -0.08385 | 183° | 22km/h | 22354m | 6.1m/s | -53.5°C | 3.9% | 0hPa | 2.5V | 00:00:00 | 01:41:33 | 00:00:00 | |
| DM0DOS-11 | 2026-09-06 00:31:37 | 52.97218 | -0.08425 | 150° | 22km/h | 22292m | 5.7m/s | -53.5°C | 4% | 0hPa | 2.5V | 08:30:00 | 01:41:21 | 00:00:00 | |
| DB0UT-7 | 2026-09-06 00:31:31 | 52.97230 | -0.08432 | 176° | 24km/h | 22276m | 5.4m/s | -53.4°C | 4.0% | 0hPa | 2.6V | 00:00:00 | 01:41:18 | 00:00:00 | |
| DM0DOS-11 | 2026-09-06 00:31:27 | 52.97264 | -0.08461 | 144° | 33km/h | 22241m | 4m/s | -53.2°C | 3.9% | 0hPa | 2.6V | 08:30:00 | 01:41:11 | 00:00:00 | |
| DJ2DS-15 | 2026-09-06 00:31:26 | 52.97252 | -0.08446 | 144° | 26km/h | 22252m | 5.8m/s | -53.2°C | 3.9% | 0hPa | 2.6V | 00:00:00 | 01:41:13 | 00:00:00 | |
| DM0DOS-11 | 2026-09-06 00:31:17 | 52.97313 | -0.08522 | 146° | 16km/h | 22187m | 6.1m/s | -53°C | 3.8% | 0hPa | 2.6V | 08:30:00 | 01:41:01 | 00:00:00 | |
| DM0DOS-11 | 2026-09-06 00:31:07 | 52.97362 | -0.08594 | 130° | 20km/h | 22133m | 5.7m/s | -53.1°C | 3.9% | 0hPa | 2.5V | 08:30:00 | 01:40:51 | 00:00:00 | |
| DJ2DS-15 | 2026-09-06 00:31:06 | 52.97353 | -0.08580 | 140° | 24km/h | 22145m | 5.0m/s | -53.0°C | 3.9% | 0hPa | 2.5V | 00:00:00 | 01:40:53 | 08:30:00 | |
| DB0UT-7 | 2026-09-06 00:31:01 | 52.97372 | -0.08610 | 145° | 24km/h | 22118m | 5.4m/s | -53.0°C | 3.9% | 0hPa | 2.5V | 00:00:00 | 00:00:00 | 08:30:00 | |
| DM0DOS-11 | 2026-09-06 00:30:57 | 52.97404 | -0.08670 | 130° | 31km/h | 22080m | 4.4m/s | -52.9°C | 3.8% | 0hPa | 2.5V | 08:30:00 | 01:40:41 | 00:00:00 | |
| DM0DOS-11 | 2026-09-06 00:30:47 | 52.97431 | -0.08746 | 119° | 20km/h | 22023m | 5.7m/s | -52.6°C | 3.7% | 0hPa | 2.5V | 08:30:00 | 01:40:31 | 00:00:00 | |
| DJ2DS-15 | 2026-09-06 00:30:46 | 52.97428 | -0.08732 | 111° | 22km/h | 22035m | 5.8m/s | -52.6°C | 3.7% | 0hPa | 2.6V | 00:00:00 | 01:40:33 | 00:00:00 | |
| DM0DOS-11 | 2026-09-06 00:30:37 | 52.97457 | -0.08838 | 107° | 18km/h | 21969m | 5.7m/s | -53°C | 3.7% | 0hPa | 2.6V | 08:30:00 | 01:40:21 | 00:00:00 | |
| DB0UT-7 | 2026-09-06 00:30:31 | 52.97459 | -0.08860 | 91° | 27km/h | 21952m | 6.0m/s | -53.1°C | 3.8% | 0hPa | 2.5V | 00:00:00 | 01:40:18 | 00:00:00 | |
| DM0DOS-11 | 2026-09-06 00:30:27 | 52.97458 | -0.08920 | 108° | 22km/h | 21914m | 4.9m/s | -53.6°C | 3.8% | 0hPa | 2.5V | 08:30:00 | 01:40:11 | 00:00:00 | |
| DJ2DS-15 | 2026-09-06 00:30:26 | 52.97456 | -0.08902 | 90° | 27km/h | 21925m | 6.4m/s | -53.3°C | 3.8% | 0hPa | 2.5V | 00:00:00 | 01:40:13 | 00:00:00 | |
| DM0DOS-11 | 2026-09-06 00:30:17 | 52.97476 | -0.09010 | 110° | 31km/h | 21857m | 6m/s | -53.7°C | 3.9% | 0hPa | 2.5V | 08:30:00 | 01:40:01 | 00:00:00 | |
| DM0DOS-11 | 2026-09-06 00:30:06 | 52.97504 | -0.09143 | 109° | 33km/h | 21799m | 5.2m/s | -54.1°C | 3.9% | 0hPa | 2.5V | 08:30:00 | 01:39:51 | 00:00:00 | |
| DJ2DS-15 | 2026-09-06 00:30:06 | 52.97498 | -0.09117 | 112° | 35km/h | 21811m | 6.3m/s | -53.9°C | 3.9% | 0hPa | 2.6V | 00:00:00 | 01:39:53 | 00:00:00 | |
| DB0UT-7 | 2026-09-06 00:30:01 | 52.97512 | -0.09183 | 107° | 37km/h | 21782m | 6.4m/s | -54.1°C | 3.9% | 0hPa | 2.6V | 00:00:00 | 00:00:00 | 00:00:00 | |
| DM0DOS-11 | 2026-09-06 00:29:56 | 52.97525 | -0.09281 | 97° | 31km/h | 21741m | 5.9m/s | -54.7°C | 4.1% | 0hPa | 2.6V | 08:30:00 | 01:39:41 | 00:00:00 | |
| DM0DOS-11 | 2026-09-06 00:29:46 | 52.97535 | -0.09425 | 92° | 37km/h | 21684m | 5.1m/s | -54.7°C | 4.1% | 0hPa | 2.6V | 08:30:00 | 01:39:31 | 00:00:00 | |
| BIOWL1-15 | 2026-09-06 00:29:43 | 52.97535 | -0.09441 | 87° | 38km/h | 21679m | 5.3m/s | -54.6°C | 1% | 0hPa | 2.6V | 18:12:15 | 01:39:30 | 00:00:00 | |
| BIOWL1-15 | 2026-09-06 00:29:31 | 52.97509 | -0.09625 | 78° | 35km/h | 21610m | 6.3m/s | -54.3°C | 0.9% | 0hPa | 2.5V | 18:12:15 | 01:39:18 | 00:00:00 | |
| BIOWL9-15 | 2026-09-06 00:29:27 | 52.97501 | -0.09680 | 80° | 33km/h | 21588m | 5.2m/s | -54.4°C | 1.2% | -1.0hPa | 2.5V | 00:00:00 | 00:00:00 | 00:00:00 | |
| DM0DOS-11 | 2026-09-06 00:29:25 | 52.97493 | -0.09720 | 59° | 33km/h | 21571m | 6m/s | -54.6°C | 3.9% | 0hPa | 2.5V | 08:30:00 | 01:39:11 | 00:00:00 | |
| BIOWL1-15 | 2026-09-06 00:29:20 | 52.97474 | -0.09781 | 62° | 33km/h | 21542m | 6.7m/s | -55.5°C | 1.1% | 0hPa | 2.5V | 18:12:15 | 01:39:06 | 00:00:00 | |
| BIOWL1-15 | 2026-09-06 00:29:12 | 52.97442 | -0.09892 | 57° | 37km/h | 21492m | 5.9m/s | -55.4°C | 1.1% | 0hPa | 2.6V | 18:12:15 | 01:38:57 | 00:00:00 | |
| DM0DOS-11 | 2026-09-06 00:29:07 | 52.97414 | -0.09957 | 58° | 29km/h | 21458m | 6.3m/s | -55.3°C | 4.3% | 0hPa | 2.6V | 08:30:00 | 01:38:51 | 00:00:00 | |
| BIOWL1-15 | 2026-09-06 00:28:59 | 52.97394 | -0.10009 | 58° | 37km/h | 21429m | 6m/s | -55.3°C | 1% | 0hPa | 2.6V | 18:12:15 | 01:38:46 | 00:00:00 | |
| DM0DOS-11 | 2026-09-06 00:28:56 | 52.97369 | -0.10066 | 56° | 29km/h | 21403m | 5.8m/s | -55.3°C | 4.3% | 0hPa | 2.6V | 08:30:00 | 01:38:41 | 00:00:00 | |
| BIOWL1-15 | 2026-09-06 00:28:49 | 52.97347 | -0.10116 | 43° | 24km/h | 21370m | 6.4m/s | -55.1°C | 1.1% | 0hPa | 2.6V | 18:12:15 | 01:38:35 | 00:00:00 | |
| DM0DOS-11 | 2026-09-06 00:28:47 | 52.97328 | -0.10145 | 32° | 24km/h | 21348m | 6m/s | -55°C | 4.3% | 0hPa | 2.5V | 08:30:00 | 01:38:31 | 00:00:00 | |
| BIOWL1-15 | 2026-09-06 00:28:39 | 52.97280 | -0.10192 | 36° | 31km/h | 21303m | 4.9m/s | -54.8°C | 1% | 0hPa | 2.6V | 18:12:15 | 01:38:23 | 00:00:00 | |
| DM0DOS-11 | 2026-09-06 00:28:36 | 52.97268 | -0.10206 | 29° | 29km/h | 21292m | 5.8m/s | -54.7°C | 4.2% | 0hPa | 2.5V | 08:30:00 | 01:38:21 | 00:00:00 | |
| DB0UT-7 | 2026-09-06 00:28:31 | 52.97249 | -0.10225 | 37° | 18km/h | 21276m | 5.4m/s | -54.6°C | 4.1% | 0hPa | 2.5V | 00:00:00 | 01:38:18 | 00:00:00 | |
| DM0DOS-11 | 2026-09-06 00:28:27 | 52.97208 | -0.10259 | 18° | 24km/h | 21237m | 6.2m/s | -54.5°C | 4.1% | 0hPa | 2.5V | 08:30:00 | 01:38:11 | 00:00:00 | |
| BIOWL1-15 | 2026-09-06 00:28:26 | 52.97189 | -0.10275 | 39° | 24km/h | 21216m | 4.8m/s | -54.6°C | 0.9% | 0hPa | 2.6V | 18:12:15 | 01:38:07 | 00:00:00 | |
| DJ2DS-15 | 2026-09-06 00:28:26 | 52.97219 | -0.10251 | 28° | 20km/h | 21249m | 5.5m/s | -54.5°C | 4.1% | 0hPa | 2.6V | 00:00:00 | 01:38:13 | 00:00:00 | |
| BIOWL9-15 | 2026-09-06 00:28:25 | 52.97214 | -0.10255 | 23° | 24km/h | 21243m | 5.4m/s | -54.6°C | 1.2% | -1.0hPa | 2.6V | 00:00:00 | 00:00:00 | 00:00:00 | |
| DM0DOS-11 | 2026-09-06 00:28:17 | 52.97158 | -0.10301 | 27° | 18km/h | 21185m | 5.7m/s | -55.2°C | 4.3% | 0hPa | 2.6V | 08:30:00 | 01:38:01 | 00:00:00 | |
| BIOWL1-15 | 2026-09-06 00:28:15 | 52.97152 | -0.10308 | 39° | 15km/h | 21175m | 4.6m/s | -55.2°C | 1% | 0hPa | 2.5V | 18:12:15 | 01:37:59 | 00:00:00 | |
| DM0DOS-11 | 2026-09-06 00:28:07 | 52.97132 | -0.10327 | 60° | 11km/h | 21131m | 5.7m/s | -55.2°C | 4.3% | 0hPa | 2.5V | 08:30:00 | 01:37:51 | 00:00:00 | |
| BIOWL1-15 | 2026-09-06 00:28:03 | 52.97131 | -0.10341 | 104° | 13km/h | 21115m | 6.2m/s | -55.1°C | 1.1% | 0hPa | 2.5V | 18:12:15 | 01:37:48 | 00:00:00 | |
| DB0UT-7 | 2026-09-06 00:28:01 | 52.97131 | -0.10341 | 104° | 9km/h | 21116m | 6.2m/s | -55.1°C | 4.3% | 0hPa | 2.5V | 00:00:00 | 00:00:00 | 00:00:00 | |
| DM0DOS-11 | 2026-09-06 00:27:56 | 52.97140 | -0.10356 | 202° | 2km/h | 21077m | 6.4m/s | -54.8°C | 4.3% | 0hPa | 2.5V | 08:30:00 | 01:37:41 | 00:00:00 | |
| BIOWL1-15 | 2026-09-06 00:27:51 | 52.97140 | -0.10355 | 175° | 2km/h | 21062m | 5.8m/s | -54.7°C | 1% | 0hPa | 2.6V | 18:12:15 | 01:37:38 | 00:00:00 | |
| DM0DOS-11 | 2026-09-06 00:27:47 | 52.97152 | -0.10367 | 166° | 11km/h | 21024m | 3.3m/s | -54.4°C | 4.1% | 0hPa | 2.5V | 08:30:00 | 01:37:31 | 00:00:00 | |
| BIOWL1-15 | 2026-09-06 00:27:40 | 52.97160 | -0.10362 | 206° | 11km/h | 20993m | 4.9m/s | -54.2°C | 0.9% | 0hPa | 2.5V | 18:12:15 | 01:37:25 | 00:00:00 | |
| DM0DOS-11 | 2026-09-06 00:27:36 | 52.97175 | -0.10359 | 171° | 18km/h | 20967m | 6.2m/s | -54°C | 4% | 0hPa | 2.5V | 08:30:00 | 01:37:20 | 00:00:00 | |
| BIOWL1-15 | 2026-09-06 00:27:30 | 52.97189 | -0.10365 | 152° | 16km/h | 20953m | 4.6m/s | -54.1°C | 0.9% | 0hPa | 2.6V | 18:12:15 | 01:37:17 | 00:00:00 | |
| DM0DOS-11 | 2026-09-06 00:27:27 | 52.97196 | -0.10371 | 194° | 11km/h | 20920m | 5.2m/s | -54.6°C | 4.1% | 0hPa | 2.6V | 08:30:00 | 01:37:10 | 00:00:00 | |
| BIOWL1-15 | 2026-09-06 00:27:19 | 52.97240 | -0.10406 | 148° | 18km/h | 20866m | 5.8m/s | -54.3°C | 0.9% | 0hPa | 2.6V | 18:12:15 | 01:37:00 | 00:00:00 | |
| BIOWL7-15 | 2026-09-06 00:27:18 | 52.97212 | -0.10377 | 159° | 22km/h | 20896m | 5.7m/s | 0°C | 0% | 0hPa | 2.6V | 00:00:00 | 00:00:00 | 00:00:00 | |
| DM0DOS-11 | 2026-09-06 00:27:16 | 52.97240 | -0.10406 | 148° | 18km/h | 20866m | 5.8m/s | -54.3°C | 4.1% | 0hPa | 2.6V | 08:30:00 | 01:37:00 | 00:00:00 | |
| BIOWL1-15 | 2026-09-06 00:27:07 | 52.97273 | -0.10437 | 157° | 18km/h | 20829m | 3.7m/s | -54.3°C | 1% | 0hPa | 2.5V | 18:12:15 | 01:36:52 | 00:00:00 | |
| DM0DOS-11 | 2026-09-06 00:27:06 | 52.97282 | -0.10444 | 151° | 22km/h | 20820m | 5.2m/s | -54.3°C | 4% | 0hPa | 2.5V | 08:30:00 | 01:36:50 | 00:00:00 | |
| DJ2DS-15 | 2026-09-06 00:27:06 | 52.97269 | -0.10434 | 153° | 22km/h | 20833m | 4.9m/s | -54.3°C | 4.1% | 0hPa | 2.6V | 00:00:00 | 01:36:53 | 00:00:00 | |
| DB0UT-7 | 2026-09-06 00:27:01 | 52.97292 | -0.10453 | 147° | 26km/h | 20811m | 5.1m/s | 0°C | 0% | 0hPa | 2.5V | 00:00:00 | 00:00:00 | 00:00:00 | |
| DM0DOS-11 | 2026-09-06 00:26:56 | 52.97312 | -0.10511 | 125° | 22km/h | 20773m | 4.5m/s | -54.3°C | 4.1% | 0hPa | 2.5V | 08:30:00 | 01:36:40 | 00:00:00 | |
| BIOWL1-15 | 2026-09-06 00:26:54 | 52.97309 | -0.10504 | 116° | 22km/h | 20778m | 4.8m/s | -54.3°C | 0.9% | 0hPa | 2.5V | 18:12:15 | 01:36:41 | 00:00:00 | |
| BIOWL9-15 | 2026-09-06 00:26:52 | 52.97320 | -0.10526 | 139° | 27km/h | 20763m | 6.1m/s | -54.3°C | 1.2% | -1.0hPa | 2.5V | 00:00:00 | 00:00:00 | 00:00:00 | |
| DM0DOS-11 | 2026-09-06 00:26:46 | 52.97359 | -0.10599 | 113° | 31km/h | 20725m | 4.8m/s | -54.2°C | 4.1% | 0hPa | 2.5V | 08:30:00 | 01:36:30 | 00:00:00 | |
| BIOWL1-15 | 2026-09-06 00:26:44 | 52.97355 | -0.10587 | 118° | 33km/h | 20730m | 5m/s | -54.2°C | 1% | 0hPa | 2.6V | 18:12:15 | 01:36:31 | 00:00:00 | |
| DM0DOS-11 | 2026-09-06 00:26:36 | 52.97393 | -0.10702 | 129° | 29km/h | 20677m | 4.5m/s | -54.3°C | 4% | 0hPa | 2.6V | 08:30:00 | 01:36:20 | 00:00:00 | |
| BIOWL1-15 | 2026-09-06 00:26:33 | 52.97393 | -0.10702 | 130° | 29km/h | 20678m | 4.5m/s | -54.3°C | 0.9% | 0hPa | 2.6V | 18:12:15 | 01:36:20 | 00:00:00 | |
| DB0UT-7 | 2026-09-06 00:26:31 | 52.97402 | -0.10723 | 119° | 27km/h | 20668m | 3.7m/s | 0°C | 0% | 0hPa | 2.6V | 00:00:00 | 01:36:18 | 00:00:00 | |
| DM0DOS-11 | 2026-09-06 00:26:26 | 52.97431 | -0.10808 | 131° | 27km/h | 20631m | 4.7m/s | -54.1°C | 4% | 0hPa | 2.6V | 08:30:00 | 01:36:10 | 00:00:00 | |
| BIOWL1-15 | 2026-09-06 00:26:23 | 52.97431 | -0.10808 | 131° | 27km/h | 20631m | 4.7m/s | -54.2°C | 0.9% | 0hPa | 2.6V | 18:12:15 | 01:36:10 | 00:00:00 | |
| BIOWL9-15 | 2026-09-06 00:26:21 | 52.97442 | -0.10836 | 115° | 27km/h | 20619m | 5.2m/s | 0°C | -1.0% | -1.0hPa | 2.5V | 00:00:00 | 00:00:00 | 00:00:00 | |
| DM0DOS-11 | 2026-09-06 00:26:16 | 52.97458 | -0.10916 | 108° | 31km/h | 20583m | 4.6m/s | -54.2°C | 4% | 0hPa | 2.5V | 08:30:00 | 01:36:00 | 00:00:00 | |
| BIOWL1-15 | 2026-09-06 00:26:12 | 52.97460 | -0.10928 | 112° | 29km/h | 20578m | 5.4m/s | -54.2°C | 0.8% | 0hPa | 2.5V | 18:12:15 | 01:35:59 | 00:00:00 | |
| DM0DOS-11 | 2026-09-06 00:26:06 | 52.97484 | -0.11013 | 117° | 26km/h | 20536m | 5.1m/s | -54.6°C | 4.1% | 0hPa | 2.5V | 08:30:00 | 01:35:50 | 00:00:00 | |
| BIOWL1-15 | 2026-09-06 00:26:01 | 52.97495 | -0.11058 | 104° | 31km/h | 20516m | 4.8m/s | -54.9°C | 1% | 0hPa | 2.6V | 18:12:15 | 01:35:46 | 00:00:00 | |
| DM0DOS-11 | 2026-09-06 00:25:56 | 52.97507 | -0.11146 | 110° | 33km/h | 20486m | 4.6m/s | -54.9°C | 4.2% | 0hPa | 2.5V | 08:30:00 | 01:35:40 | 00:00:00 | |
| BIOWL1-15 | 2026-09-06 00:25:49 | 52.97519 | -0.11202 | 107° | 35km/h | 20464m | 6.4m/s | -54.8°C | 1% | 0hPa | 2.6V | 18:12:15 | 01:35:36 | 00:00:00 | |
| DM0DOS-11 | 2026-09-06 00:25:46 | 52.97524 | -0.11272 | 86° | 20km/h | 20432m | 5.5m/s | -54.6°C | 4.1% | 0hPa | 2.6V | 08:30:00 | 01:35:30 | 00:00:00 | |
| BIOWL1-15 | 2026-09-06 00:25:41 | 52.97526 | -0.11307 | 102° | 20km/h | 20411m | 6.1m/s | -54.4°C | 1% | 0hPa | 2.5V | 18:12:15 | 01:35:26 | 00:00:00 | |
| DM0DOS-11 | 2026-09-06 00:25:36 | 52.97532 | -0.11365 | 95° | 26km/h | 20380m | 6m/s | -54.1°C | 4% | 0hPa | 2.5V | 08:30:00 | 01:35:20 | 00:00:00 | |
| BIOWL1-15 | 2026-09-06 00:25:29 | 52.97533 | -0.11436 | 79° | 22km/h | 20346m | 6m/s | -54°C | 0.9% | 0hPa | 2.6V | 18:12:15 | 01:35:13 | 00:00:00 | |
| DM0DOS-11 | 2026-09-06 00:25:27 | 52.97529 | -0.11461 | 80° | 22km/h | 20331m | 5.8m/s | -54°C | 4% | 0hPa | 2.5V | 08:30:00 | 01:35:10 | 00:00:00 | |
| DJ2DS-15 | 2026-09-06 00:25:25 | 52.97532 | -0.11444 | 71° | 24km/h | 20341m | 3.9m/s | -53.9°C | 4.0% | 0hPa | 2.6V | 00:00:00 | 01:35:12 | 00:00:00 | |
| BIOWL1-15 | 2026-09-06 00:25:19 | 52.97526 | -0.11658 | 84° | 31km/h | 20233m | 4.9m/s | -54.2°C | 0.9% | 0hPa | 2.6V | 18:12:15 | 01:34:51 | 00:00:00 | |
| DM0DOS-11 | 2026-09-06 00:25:16 | 52.97529 | -0.11565 | 74° | 20km/h | 20280m | 4.6m/s | -54.3°C | 4% | 0hPa | 2.5V | 08:30:00 | 01:35:00 | 00:00:00 | |
| DM0DOS-11 | 2026-09-06 00:25:06 | 52.97525 | -0.11671 | 79° | 29km/h | 20228m | 6m/s | -54.2°C | 4% | 0hPa | 2.6V | 08:30:00 | 01:34:50 | 00:00:00 | |
| BIOWL1-15 | 2026-09-06 00:25:05 | 52.97523 | -0.11682 | 73° | 27km/h | 20223m | 4.8m/s | -54.3°C | 0.9% | 0hPa | 2.5V | 18:12:15 | 01:34:49 | 00:00:00 | |
| DJ2DS-15 | 2026-09-06 00:25:05 | 52.97527 | -0.11645 | 88° | 27km/h | 20238m | 3.7m/s | -54.2°C | 4.0% | 0hPa | 2.5V | 00:00:00 | 01:34:52 | 08:30:00 | |
| DM0DOS-11 | 2026-09-06 00:24:56 | 52.97506 | -0.11789 | 86° | 29km/h | 20175m | 4.5m/s | -54.7°C | 4.1% | 0hPa | 2.6V | 08:30:00 | 01:34:40 | 00:00:00 | |
| BIOWL1-15 | 2026-09-06 00:24:51 | 52.97506 | -0.11810 | 90° | 22km/h | 20164m | 5.5m/s | -54.7°C | 0.9% | 0hPa | 2.5V | 18:12:15 | 01:34:38 | 00:00:00 | |
| DM0DOS-11 | 2026-09-06 00:24:46 | 52.97503 | -0.11891 | 88° | 27km/h | 20121m | 6.2m/s | -54.7°C | 4% | 0hPa | 2.5V | 08:30:00 | 01:34:30 | 00:00:00 | |
| DJ2DS-15 | 2026-09-06 00:24:45 | 52.97504 | -0.11871 | 84° | 31km/h | 20132m | 4.4m/s | -54.7°C | 4.1% | 0hPa | 2.5V | 00:00:00 | 01:34:32 | 00:00:00 | |
| DM0DOS-11 | 2026-09-06 00:24:36 | 52.97508 | -0.12017 | 87° | 29km/h | 20069m | 4m/s | -55°C | 4.1% | 0hPa | 2.5V | 08:30:00 | 01:34:20 | 00:00:00 | |
| DM0DOS-11 | 2026-09-06 00:24:26 | 52.97506 | -0.12166 | 94° | 38km/h | 20016m | 6.1m/s | -55.3°C | 4.2% | 0hPa | 2.5V | 08:30:00 | 01:34:10 | 00:00:00 | |
| BIOWL1-15 | 2026-09-06 00:24:23 | 52.97506 | -0.12198 | 88° | 42km/h | 20006m | 5.2m/s | -55.4°C | 1.1% | 0hPa | 2.5V | 18:12:15 | 01:34:08 | 00:00:00 | |
| DM0DOS-11 | 2026-09-06 00:24:16 | 52.97491 | -0.12362 | 83° | 53km/h | 19965m | 4.2m/s | -55.4°C | 4.3% | 0hPa | 2.6V | 08:30:00 | 01:34:00 | 00:00:00 | |
| BIOWL1-15 | 2026-09-06 00:24:09 | 52.97486 | -0.12442 | 84° | 46km/h | 19944m | 5.8m/s | -55.4°C | 1% | 0hPa | 2.5V | 18:12:15 | 01:33:56 | 00:00:00 | |
| DM0DOS-11 | 2026-09-06 00:24:06 | 52.97476 | -0.12558 | 79° | 47km/h | 19913m | 5m/s | -55.5°C | 4.3% | 0hPa | 2.7V | 08:30:00 | 01:33:50 | 00:00:00 | |
| BIOWL1-15 | 2026-09-06 00:23:59 | 52.97466 | -0.12632 | 77° | 42km/h | 19893m | 4.8m/s | -55.4°C | 1.1% | 0hPa | 2.5V | 18:12:15 | 01:33:46 | 00:00:00 | |
| DM0DOS-11 | 2026-09-06 00:23:56 | 52.97460 | -0.12729 | 90° | 38km/h | 19862m | 5.9m/s | -55.3°C | 4.3% | 0hPa | 2.5V | 08:30:00 | 01:33:40 | 00:00:00 | |
| BIOWL1-15 | 2026-09-06 00:23:49 | 52.97459 | -0.12791 | 86° | 33km/h | 19842m | 4m/s | -55.2°C | 1.1% | 0hPa | 2.5V | 18:12:15 | 01:33:36 | 00:00:00 | |
| DM0DOS-11 | 2026-09-06 00:23:46 | 52.97451 | -0.12875 | 72° | 31km/h | 19811m | 4.6m/s | -55.2°C | 4.3% | 0hPa | 2.5V | 08:30:00 | 01:33:30 | 00:00:00 | |
| BIOWL1-15 | 2026-09-06 00:23:37 | 52.97438 | -0.12964 | 81° | 33km/h | 19778m | 5.7m/s | -55.1°C | 1% | 0hPa | 2.6V | 18:12:15 | 01:33:23 | 00:00:00 | |
| DM0DOS-11 | 2026-09-06 00:23:36 | 52.97435 | -0.13006 | 82° | 31km/h | 19764m | 5.2m/s | -55.1°C | 4.2% | 0hPa | 2.5V | 08:30:00 | 01:33:20 | 00:00:00 | |
| DM0DOS-11 | 2026-09-06 00:23:26 | 52.97432 | -0.13115 | 91° | 27km/h | 19714m | 5.1m/s | -55.1°C | 4.2% | 0hPa | 2.7V | 08:30:00 | 01:33:10 | 00:00:00 | |
| BIOWL1-15 | 2026-09-06 00:23:26 | 52.97431 | -0.13085 | 87° | 22km/h | 19728m | 4.6m/s | -55.1°C | 1% | 0hPa | 2.5V | 18:12:15 | 01:33:13 | 00:00:00 | |
| DJ2DS-15 | 2026-09-06 00:23:25 | 52.97431 | -0.13094 | 92° | 29km/h | 19723m | 4.1m/s | 0°C | 0% | 0hPa | 2.6V | 00:00:00 | 01:33:12 | 00:00:00 | |
| DM0DOS-11 | 2026-09-06 00:23:16 | 52.97451 | -0.13232 | 119° | 27km/h | 19666m | 3.6m/s | -55°C | 4.2% | 0hPa | 2.6V | 08:30:00 | 01:33:00 | 00:00:00 | |
| BIOWL1-15 | 2026-09-06 00:23:15 | 52.97451 | -0.13232 | 119° | 27km/h | 19666m | 3.6m/s | -55°C | 1.1% | 0hPa | 2.6V | 18:12:15 | 01:33:00 | 00:00:00 | |
| BIOWL9-15 | 2026-09-06 00:23:14 | 52.97448 | -0.13222 | 117° | 27km/h | 19670m | 3.9m/s | -55.0°C | 1.3% | -1.0hPa | 2.6V | 00:00:00 | 00:00:00 | 00:00:00 | |
| DM0DOS-11 | 2026-09-06 00:23:08 | 52.97496 | -0.13346 | 120° | 37km/h | 19616m | 5.4m/s | -55°C | 4.2% | 0hPa | 2.6V | 08:30:00 | 01:32:50 | 00:00:00 | |
| BIOWL1-15 | 2026-09-06 00:23:04 | 52.97500 | -0.13359 | 119° | 35km/h | 19611m | 3.6m/s | -55.1°C | 1% | 0hPa | 2.5V | 18:12:15 | 01:32:49 | 00:00:00 | |
| DJ2DS-15 | 2026-09-06 00:23:03 | 52.97496 | -0.13346 | 121° | 47km/h | 19616m | 5.4m/s | 0°C | 0% | 0hPa | 2.7V | 00:00:00 | 01:32:50 | 00:00:00 | |
| DM0DOS-11 | 2026-09-06 00:22:56 | 52.97545 | -0.13490 | 124° | 44km/h | 19568m | 4.3m/s | -55.3°C | 4.2% | 0hPa | 2.7V | 08:30:00 | 01:32:40 | 00:00:00 | |
| BIOWL1-15 | 2026-09-06 00:22:51 | 52.97557 | -0.13520 | 123° | 42km/h | 19559m | 5.7m/s | -55.3°C | 1% | 0hPa | 2.5V | 18:12:15 | 01:32:38 | 00:00:00 | |
| DM0DOS-11 | 2026-09-06 00:22:46 | 52.97603 | -0.13653 | 116° | 47km/h | 19519m | 4.1m/s | -55.4°C | 4.2% | 0hPa | 2.6V | 08:30:00 | 01:32:30 | 00:00:00 | |
| BIOWL1-15 | 2026-09-06 00:22:40 | 52.97618 | -0.13709 | 114° | 47km/h | 19504m | 4.4m/s | -55.5°C | 1.1% | 0hPa | 2.5V | 18:12:15 | 01:32:27 | 00:00:00 | |
| DM0DOS-11 | 2026-09-06 00:22:36 | 52.97646 | -0.13835 | 108° | 49km/h | 19467m | 5.2m/s | -55.7°C | 4.3% | 0hPa | 2.5V | 08:30:00 | 01:32:20 | 00:00:00 | |
| DM0DOS-11 | 2026-09-06 00:22:26 | 52.97674 | -0.14046 | 96° | 46km/h | 19417m | 5.8m/s | -55.7°C | 4.2% | 0hPa | 2.5V | 08:30:00 | 01:32:10 | 00:00:00 | |
| DM0DOS-11 | 2026-09-06 00:22:16 | 52.97686 | -0.14258 | 88° | 49km/h | 19368m | 5.8m/s | -56.1°C | 4.3% | 0hPa | 2.7V | 08:30:00 | 01:32:00 | 00:00:00 | |
| DM0DOS-11 | 2026-09-06 00:22:06 | 52.97670 | -0.14465 | 74° | 57km/h | 19321m | 4m/s | -56.5°C | 4.4% | 0hPa | 2.6V | 08:30:00 | 01:31:50 | 00:00:00 | |
| BIOWL1-15 | 2026-09-06 00:22:01 | 52.97649 | -0.14639 | 85° | 51km/h | 19283m | 4.5m/s | -56.4°C | 1.2% | 0hPa | 2.5V | 18:12:15 | 01:31:42 | 00:00:00 | |
| DM0DOS-11 | 2026-09-06 00:21:56 | 52.97647 | -0.14680 | 84° | 47km/h | 19274m | 5.8m/s | -56.6°C | 4.4% | 0hPa | 2.6V | 08:30:00 | 01:31:40 | 00:00:00 | |
| BIOWL1-15 | 2026-09-06 00:21:51 | 52.97646 | -0.14718 | 89° | 46km/h | 19264m | 5.8m/s | -56.7°C | 1.2% | 0hPa | 2.7V | 18:12:15 | 01:31:38 | 00:00:00 | |
| DM0DOS-11 | 2026-09-06 00:21:46 | 52.97641 | -0.14863 | 88° | 46km/h | 19224m | 6m/s | -57°C | 4.5% | 0hPa | 2.6V | 08:30:00 | 01:31:30 | 00:00:00 | |
| BIOWL1-15 | 2026-09-06 00:21:39 | 52.97647 | -0.14990 | 95° | 49km/h | 19193m | 5.2m/s | -56.9°C | 1.3% | 0hPa | 2.7V | 18:12:15 | 01:31:24 | 00:00:00 | |
| DM0DOS-11 | 2026-09-06 00:21:36 | 52.97653 | -0.15066 | 100° | 46km/h | 19173m | 4.7m/s | -57°C | 4.6% | 0hPa | 2.6V | 08:30:00 | 01:31:20 | 00:00:00 | |
| BIOWL1-15 | 2026-09-06 00:21:33 | 52.97671 | -0.15204 | 107° | 55km/h | 19138m | 6m/s | -57°C | 1.3% | 0hPa | 2.7V | 18:12:15 | 01:31:13 | 00:00:00 | |
| DJ2DS-15 | 2026-09-06 00:21:32 | 52.97655 | -0.15085 | 99° | 51km/h | 19169m | 5.0m/s | 0°C | 0% | 0hPa | 2.6V | 00:00:00 | 01:31:19 | 00:00:00 | |
| DM0DOS-11 | 2026-09-06 00:21:26 | 52.97683 | -0.15267 | 111° | 53km/h | 19122m | 5.7m/s | -56.9°C | 4.6% | 0hPa | 2.6V | 08:30:00 | 01:31:10 | 00:00:00 | |
| BIOWL1-15 | 2026-09-06 00:21:16 | 52.97733 | -0.15547 | 103° | 49km/h | 19049m | 6.3m/s | -56.9°C | 1.3% | 0hPa | 2.7V | 18:12:15 | 01:30:56 | 00:00:00 | |
| DJ2DS-15 | 2026-09-06 00:21:10 | 52.97730 | -0.15527 | 107° | 49km/h | 19055m | 4.6m/s | 0°C | 0% | 0hPa | 2.7V | 00:00:00 | 01:30:57 | 00:00:00 | |
| DM0DOS-11 | 2026-09-06 00:21:06 | 52.97742 | -0.15669 | 91° | 47km/h | 19018m | 5.9m/s | -56.8°C | 4.5% | 0hPa | 2.7V | 08:30:00 | 01:30:50 | 00:00:00 | |
| BIOWL1-15 | 2026-09-06 00:21:02 | 52.97746 | -0.15776 | 93° | 55km/h | 18990m | 6.2m/s | -57°C | 1.2% | 0hPa | 2.6V | 18:12:15 | 01:30:45 | 00:00:00 | |
| BIOWL1-15 | 2026-09-06 00:20:52 | 52.97749 | -0.15901 | 86° | 44km/h | 18957m | 5.2m/s | -57°C | 1.3% | 0hPa | 2.6V | 18:12:15 | 01:30:39 | 00:00:00 | |
| BIOWL1-15 | 2026-09-06 00:20:42 | 52.97747 | -0.16133 | 98° | 37km/h | 18883m | 4.7m/s | -56.8°C | 1.3% | 0hPa | 2.7V | 18:12:15 | 01:30:25 | 00:00:00 | |
| BIOWL9-15 | 2026-09-06 00:20:39 | 52.97745 | -0.16119 | 101° | 33km/h | 18888m | 5.2m/s | 0°C | -1.0% | -1.0hPa | 2.7V | 00:00:00 | 00:00:00 | 00:00:00 | |
| DM0DOS-11 | 2026-09-06 00:20:36 | 52.97749 | -0.16220 | 95° | 42km/h | 18856m | 5.8m/s | -56.7°C | 4.5% | 0hPa | 2.7V | 08:30:00 | 01:30:20 | 00:00:00 | |
| BIOWL1-15 | 2026-09-06 00:20:33 | 52.97756 | -0.16302 | 106° | 35km/h | 18829m | 5.2m/s | -56.8°C | 1.2% | 0hPa | 2.7V | 18:12:15 | 01:30:15 | 00:00:00 | |
| DM0DOS-11 | 2026-09-06 00:20:26 | 52.97768 | -0.16378 | 104° | 42km/h | 18804m | 5.9m/s | -56.8°C | 4.6% | 0hPa | 2.7V | 08:30:00 | 01:30:10 | 00:00:00 | |
| DM0DOS-11 | 2026-09-06 00:20:16 | 52.97804 | -0.16554 | 112° | 40km/h | 18750m | 5.3m/s | -56.7°C | 4.6% | 0hPa | 2.6V | 08:30:00 | 01:30:00 | 00:00:00 | |
| DM0DOS-11 | 2026-09-06 00:20:06 | 52.97843 | -0.16734 | 105° | 42km/h | 18696m | 5.6m/s | -56.5°C | 4.5% | 0hPa | 2.7V | 08:30:00 | 01:29:50 | 00:00:00 | |
| BIOWL1-15 | 2026-09-06 00:19:56 | 52.97861 | -0.16855 | 100° | 49km/h | 18659m | 5.6m/s | -56.4°C | 1.2% | 0hPa | 2.6V | 18:12:15 | 01:29:43 | 00:00:00 | |
| DM0DOS-11 | 2026-09-06 00:19:56 | 52.97867 | -0.16915 | 96° | 46km/h | 18643m | 6.2m/s | -56.3°C | 4.5% | 0hPa | 2.6V | 08:30:00 | 01:29:40 | 00:00:00 | |
| DM0DOS-11 | 2026-09-06 00:19:46 | 52.97878 | -0.17088 | 88° | 46km/h | 18592m | 4.5m/s | -56.1°C | 4.5% | 0hPa | 2.6V | 08:30:00 | 01:29:30 | 00:00:00 | |
| BIOWL1-15 | 2026-09-06 00:19:45 | 52.97877 | -0.17126 | 85° | 47km/h | 18581m | 5.6m/s | -56°C | 1.2% | 0hPa | 2.7V | 18:12:15 | 01:29:28 | 00:00:00 | |
| BIOWL1-15 | 2026-09-06 00:19:36 | 52.97876 | -0.17259 | 94° | 42km/h | 18545m | 3.7m/s | -55.7°C | 1.1% | 0hPa | 2.6V | 18:12:15 | 01:29:21 | 00:00:00 | |
| DM0DOS-11 | 2026-09-06 00:19:36 | 52.97876 | -0.17276 | 92° | 40km/h | 18540m | 5.6m/s | -55.6°C | 4.3% | 0hPa | 2.6V | 08:30:00 | 01:29:20 | 00:00:00 | |
| DM0DOS-11 | 2026-09-06 00:19:26 | 52.97869 | -0.17450 | 85° | 46km/h | 18489m | 3.7m/s | -55.7°C | 4.4% | 0hPa | 2.6V | 08:30:00 | 01:29:10 | 00:00:00 | |
| BIOWL1-15 | 2026-09-06 00:19:24 | 52.97870 | -0.17430 | 87° | 47km/h | 18493m | 4.3m/s | 0°C | 0% | 0hPa | 2.7V | 18:12:15 | 01:29:11 | 00:00:00 | |
| DM0DOS-11 | 2026-09-06 00:19:16 | 52.97859 | -0.17601 | 86° | 40km/h | 18439m | 5.2m/s | -55.6°C | 4.3% | 0hPa | 2.6V | 08:30:00 | 01:29:00 | 00:00:00 | |
| BIOWL1-15 | 2026-09-06 00:19:14 | 52.97857 | -0.17636 | 81° | 42km/h | 18429m | 6m/s | 0°C | 0% | 0hPa | 2.7V | 18:12:15 | 01:28:58 | 00:00:00 | |
| DM0DOS-11 | 2026-09-06 00:19:04 | 52.97858 | -0.17755 | 93° | 35km/h | 18388m | 4.1m/s | -55.4°C | 4.3% | 0hPa | 2.6V | 08:30:00 | 01:28:50 | 00:00:00 | |
| BIOWL1-15 | 2026-09-06 00:19:02 | 52.97858 | -0.17770 | 96° | 37km/h | 18383m | 5.4m/s | 0°C | 0% | 0hPa | 2.6V | 18:12:15 | 01:28:49 | 00:00:00 | |
| DM0DOS-11 | 2026-09-06 00:18:54 | 52.97862 | -0.17922 | 94° | 38km/h | 18338m | 4.9m/s | -55.2°C | 4.2% | 0hPa | 2.7V | 08:30:00 | 01:28:40 | 00:00:00 | |
| BIOWL1-15 | 2026-09-06 00:18:51 | 52.97864 | -0.17955 | 98° | 40km/h | 18327m | 4.3m/s | 0°C | 0% | 0hPa | 2.6V | 18:12:15 | 01:28:38 | 00:00:00 | |
| DM0DOS-11 | 2026-09-06 00:18:44 | 52.97874 | -0.18089 | 95° | 46km/h | 18289m | 5.3m/s | -55.7°C | 4.3% | 0hPa | 2.7V | 08:30:00 | 01:28:30 | 00:00:00 | |
| DM0DOS-11 | 2026-09-06 00:18:34 | 52.97891 | -0.18282 | 96° | 40km/h | 18239m | 3.9m/s | -55.7°C | 4.3% | 0hPa | 2.6V | 08:30:00 | 01:28:20 | 00:00:00 | |
| DM0DOS-11 | 2026-09-06 00:18:24 | 52.97900 | -0.18469 | 93° | 40km/h | 18193m | 5.4m/s | -55.7°C | 4.3% | 0hPa | 2.6V | 08:30:00 | 01:28:10 | 00:00:00 | |
| DM0DOS-11 | 2026-09-06 00:18:14 | 52.97909 | -0.18618 | 97° | 46km/h | 18145m | 4.1m/s | -55.7°C | 4.3% | 0hPa | 2.6V | 08:30:00 | 01:28:00 | 00:00:00 | |
| BIOWL1-15 | 2026-09-06 00:18:12 | 52.97910 | -0.18637 | 95° | 44km/h | 18141m | 5.4m/s | 0°C | 0% | 0hPa | 2.6V | 18:12:15 | 01:27:59 | 00:00:00 | |
| DM0DOS-11 | 2026-09-06 00:18:07 | 52.97923 | -0.18775 | 103° | 37km/h | 18097m | 4.3m/s | -55.8°C | 4.3% | 0hPa | 2.6V | 08:30:00 | 01:27:50 | 00:00:00 | |
| BIOWL1-15 | 2026-09-06 00:18:00 | 52.97927 | -0.18822 | 93° | 40km/h | 18083m | 4m/s | 0°C | 0% | 0hPa | 2.6V | 18:12:15 | 01:27:47 | 00:00:00 | |
| DM0DOS-11 | 2026-09-06 00:17:57 | 52.97935 | -0.18950 | 105° | 42km/h | 18050m | 5.6m/s | -56.1°C | 4.4% | 0hPa | 2.6V | 08:30:00 | 01:27:40 | 00:00:00 | |
| BIOWL1-15 | 2026-09-06 00:17:48 | 52.97959 | -0.19066 | 105° | 44km/h | 18018m | 4.1m/s | 0°C | 0% | 0hPa | 2.6V | 18:12:15 | 01:27:33 | 00:00:00 | |
| DM0DOS-11 | 2026-09-06 00:17:47 | 52.97964 | -0.19119 | 93° | 42km/h | 18004m | 5m/s | -56.3°C | 4.5% | 0hPa | 2.6V | 08:30:00 | 01:27:30 | 00:00:00 | |
| BIOWL1-15 | 2026-09-06 00:17:37 | 52.97976 | -0.19267 | 101° | 44km/h | 17965m | 4.8m/s | 0°C | 0% | 0hPa | 2.6V | 18:12:15 | 01:27:22 | 00:00:00 | |
| BIOWL1-15 | 2026-09-06 00:17:25 | 52.97977 | -0.19475 | 86° | 42km/h | 17905m | 5.5m/s | 0°C | 0% | 0hPa | 2.7V | 18:12:15 | 01:27:10 | 00:00:00 | |
| BIOWL1-15 | 2026-09-06 00:17:13 | 52.97980 | -0.19622 | 98° | 27km/h | 17858m | 4m/s | 0°C | 0% | 0hPa | 2.6V | 18:12:15 | 01:27:00 | 00:00:00 | |
| BIOWL1-15 | 2026-09-06 00:17:03 | 52.97989 | -0.19785 | 85° | 38km/h | 17806m | 4.4m/s | 0°C | 0% | 0hPa | 2.6V | 18:12:15 | 01:26:49 | 00:00:00 | |
| DM0DOS-11 | 2026-09-06 00:16:47 | 52.97979 | -0.20133 | 93° | 46km/h | 17714m | 5.2m/s | -56.8°C | 4.6% | 0hPa | 2.6V | 08:30:00 | 01:26:30 | 00:00:00 | |
| DM0DOS-11 | 2026-09-06 00:16:36 | 52.97983 | -0.20323 | 91° | 42km/h | 17664m | 3.7m/s | -56.8°C | 4.7% | 0hPa | 2.7V | 08:30:00 | 01:26:20 | 00:00:00 | |
| DM0DOS-11 | 2026-09-06 00:16:26 | 52.97994 | -0.20509 | 100° | 44km/h | 17614m | 5m/s | -56.5°C | 4.6% | 0hPa | 2.7V | 08:30:00 | 01:26:10 | 00:00:00 | |
| DM0DOS-11 | 2026-09-06 00:16:16 | 52.98003 | -0.20692 | 98° | 40km/h | 17566m | 4.1m/s | -56.3°C | 4.5% | 0hPa | 2.6V | 08:30:00 | 01:26:00 | 00:00:00 | |
| DM0DOS-11 | 2026-09-06 00:16:06 | 52.98027 | -0.20868 | 106° | 33km/h | 17511m | 4.8m/s | -56.3°C | 4.5% | 0hPa | 2.6V | 08:30:00 | 01:25:49 | 00:00:00 | |
| DM0DOS-11 | 2026-09-06 00:15:55 | 52.98033 | -0.21056 | 94° | 42km/h | 17453m | 3.9m/s | -56.1°C | 4.4% | 0hPa | 2.7V | 08:30:00 | 01:25:37 | 00:00:00 | |
| DM0DOS-11 | 2026-09-06 00:15:36 | 52.98031 | -0.21333 | 88° | 42km/h | 17373m | 5.2m/s | -56.3°C | 4.6% | 0hPa | 2.7V | 08:30:00 | 01:25:20 | 00:00:00 | |
| DM0DOS-11 | 2026-09-06 00:15:26 | 52.98030 | -0.21506 | 90° | 40km/h | 17324m | 5.6m/s | -56.2°C | 4.5% | 0hPa | 2.6V | 08:30:00 | 01:25:10 | 00:00:00 | |
| DM0DOS-11 | 2026-09-06 00:15:17 | 52.98029 | -0.21680 | 93° | 47km/h | 17275m | 5.1m/s | -56°C | 4.3% | 0hPa | 2.6V | 08:30:00 | 01:25:00 | 00:00:00 | |
| DM0DOS-11 | 2026-09-06 00:15:06 | 52.98031 | -0.21872 | 94° | 49km/h | 17228m | 5.1m/s | -56.7°C | 4.6% | 0hPa | 2.6V | 08:30:00 | 01:24:50 | 00:00:00 | |
| DM0DOS-11 | 2026-09-06 00:14:57 | 52.98035 | -0.22112 | 88° | 57km/h | 17175m | 4.3m/s | -56.6°C | 4.5% | 0hPa | 2.6V | 08:30:00 | 01:24:40 | 00:00:00 | |
| DM0DOS-11 | 2026-09-06 00:14:46 | 52.98045 | -0.22340 | 92° | 51km/h | 17125m | 5.1m/s | -56.6°C | 4.5% | 0hPa | 2.7V | 08:30:00 | 01:24:30 | 00:00:00 | |
| DM0DOS-11 | 2026-09-06 00:14:36 | 52.98042 | -0.22546 | 86° | 46km/h | 17076m | 4m/s | -57.4°C | 4.8% | 0hPa | 2.7V | 08:30:00 | 01:24:20 | 00:00:00 | |
| DM0DOS-11 | 2026-09-06 00:14:26 | 52.98040 | -0.22737 | 99° | 46km/h | 17030m | 5.4m/s | -57.4°C | 4.8% | 0hPa | 2.6V | 08:30:00 | 01:24:10 | 00:00:00 | |
| DM0DOS-11 | 2026-09-06 00:14:16 | 52.98054 | -0.22915 | 100° | 37km/h | 16980m | 3.4m/s | -57.5°C | 4.8% | 0hPa | 2.6V | 08:30:00 | 01:24:00 | 00:00:00 | |
| DM0DOS-11 | 2026-09-06 00:14:06 | 52.98083 | -0.23081 | 107° | 40km/h | 16933m | 4.5m/s | -57.3°C | 4.7% | 0hPa | 2.6V | 08:30:00 | 01:23:50 | 00:00:00 | |
| DM0DOS-11 | 2026-09-06 00:13:56 | 52.98108 | -0.23269 | 102° | 47km/h | 16885m | 4.9m/s | -57.3°C | 4.7% | 0hPa | 2.7V | 08:30:00 | 01:23:40 | 00:00:00 | |
| DM0DOS-11 | 2026-09-06 00:13:46 | 52.98133 | -0.23471 | 101° | 58km/h | 16839m | 4.6m/s | -57.7°C | 4.9% | 0hPa | 2.7V | 08:30:00 | 01:23:30 | 00:00:00 | |
| DM0DOS-11 | 2026-09-06 00:13:36 | 52.98158 | -0.23676 | 106° | 47km/h | 16791m | 4.7m/s | -57.9°C | 4.9% | 0hPa | 2.6V | 08:30:00 | 01:23:20 | 00:00:00 | |
| DM0DOS-11 | 2026-09-06 00:13:04 | 52.98284 | -0.24417 | 106° | 57km/h | 16628m | 4.9m/s | -57.9°C | 5.1% | 0hPa | 2.7V | 08:30:00 | 01:22:46 | 00:00:00 | |
| DM0DOS-11 | 2026-09-06 00:12:50 | 52.98336 | -0.24636 | 114° | 49km/h | 16577m | 5.6m/s | -57.8°C | 5.1% | 0hPa | 2.6V | 08:30:00 | 01:22:36 | 00:00:00 | |
| DM0DOS-11 | 2026-09-06 00:12:44 | 52.98392 | -0.24824 | 122° | 55km/h | 16529m | 5.2m/s | 0°C | 0% | 0hPa | 2.6V | 08:30:00 | 01:22:26 | 00:00:00 | |
| DM0DOS-11 | 2026-09-06 00:12:30 | 52.98455 | -0.25033 | 114° | 58km/h | 16480m | 5.2m/s | 0°C | 0% | 0hPa | 2.6V | 08:30:00 | 01:22:16 | 00:00:00 | |
| DM0DOS-11 | 2026-09-06 00:12:24 | 52.98511 | -0.25276 | 105° | 68km/h | 16430m | 4.9m/s | 0°C | 0% | 0hPa | 2.6V | 08:30:00 | 01:22:06 | 00:00:00 | |
| DM0DOS-11 | 2026-09-06 00:12:06 | 52.98580 | -0.25730 | 99° | 71km/h | 16354m | 4.4m/s | 0°C | 0% | 0hPa | 2.7V | 08:30:00 | 01:21:50 | 00:00:00 | |
| DM0DOS-11 | 2026-09-06 00:11:56 | 52.98604 | -0.26014 | 96° | 64km/h | 16305m | 4.3m/s | 0°C | 0% | 0hPa | 2.7V | 08:30:00 | 01:21:40 | 00:00:00 | |
| DM0DOS-11 | 2026-09-06 00:11:46 | 52.98634 | -0.26279 | 100° | 64km/h | 16257m | 5.4m/s | 0°C | 0% | 0hPa | 2.6V | 00:00:00 | 01:21:30 | 00:00:00 | |
| DM0DOS-11 | 2026-09-06 00:11:36 | 52.98664 | -0.26553 | 100° | 69km/h | 16207m | 4.9m/s | 0°C | 0% | 0hPa | 2.6V | 00:00:00 | 01:21:20 | 00:00:00 | |
| DM0DOS-11 | 2026-09-06 00:10:51 | 52.98774 | -0.27883 | 97° | 62km/h | 15982m | 4.3m/s | 0°C | 0% | 0hPa | 2.6V | 00:00:00 | 01:20:33 | 00:00:00 | |
| DM0DOS-11 | 2026-09-06 00:10:36 | 52.98811 | -0.28165 | 102° | 64km/h | 15930m | 4.9m/s | 0°C | 0% | 0hPa | 2.6V | 00:00:00 | 01:20:22 | 00:00:00 | |
| DM0DOS-11 | 2026-09-06 00:10:26 | 52.98838 | -0.28439 | 98° | 73km/h | 15884m | 4.7m/s | 0°C | 0% | 0hPa | 2.6V | 00:00:00 | 01:20:12 | 00:00:00 | |
| DM0DOS-11 | 2026-09-06 00:10:16 | 52.98869 | -0.28731 | 100° | 66km/h | 15836m | 5m/s | 0°C | 0% | 0hPa | 2.6V | 00:00:00 | 01:20:02 | 00:00:00 |